Darstellungsparameter: Aktuell verwendete Einstellungen:
Skalierung der Graphiken ... ?
xyx+y,   Skalierungsfaktor:      Skalierung: Modus: x, Faktor: 1
Darstellungszeitraum ... ?
Vom - - bis: - -   Zeitraum: 02.06.2021 - 08.06.2021
Min/Max/Avg-Anzeige ... ?
Zeige MMA aktuell
Zeige MMA Monat
Zeige MMA alles
Zeige --A aktuell
Zeige --A Monat
Zeige --A alles
Keine MMA-Anzeige
MMA:
Keine MMA-Graphiken
MMA-Basis: 02.06.2021 - 08.06.2021
Quicknavigation für Darstellung... ?
Tage:      1T, 2T, 3T, 5T -1T -2T -3T -5T +1T +2T +3T +5T
Wochen: 1W, 2W, 3W -1W -2W -3W +1W +2W +3W
Monate: 1M, 3M, 6M -1M -3M -6M +1M +3M +6M
Jahre:    1J, 3J, 5J, 10J -1J -3J -5J -10J +1J +3J +5J +10J
Nutze für die Darstellung ... ?
Originaldaten oder Mittelwerte auf ...
Stundenbasis Tagesbasis Wochenbasis
Monatsbasis Jahresbasis      Datenbasis: Original-Daten
Darstellen als:
Statistik (Auto) Statistik J:M      Darstellung:
Zur Graphik,    zurück zur Übersicht aller Sensoren.
 
Tabellarische Datenbersicht: ?
 
Sensor: Nr:Datum:Temp:Feuchte:Taupunkt:
Aussen-T/F 1 02-06-2021 00:00:00 13.3 C 77 % 9.36 C
2 02-06-2021 00:05:00 13.2 C 77 % 9.26 C
3 02-06-2021 00:10:00 13.1 C 78 % 9.36 C
4 02-06-2021 00:15:00 12.9 C 79 % 9.35 C
5 02-06-2021 00:20:00 12.8 C 79 % 9.25 C
6 02-06-2021 00:25:00 12.6 C 80 % 9.25 C
7 02-06-2021 00:30:00 12.5 C 80 % 9.15 C
8 02-06-2021 00:35:00 12.4 C 81 % 9.23 C
9 02-06-2021 00:40:00 12.3 C 81 % 9.14 C
10 02-06-2021 00:45:00 12.2 C 81 % 9.04 C
11 02-06-2021 00:50:00 12.1 C 81 % 8.94 C
12 02-06-2021 00:55:00 12.1 C 82 % 9.12 C
13 02-06-2021 01:00:00 11.9 C 82 % 8.93 C
14 02-06-2021 01:05:00 11.9 C 82 % 8.93 C
15 02-06-2021 01:10:00 11.8 C 83 % 9.01 C
16 02-06-2021 01:15:00 11.7 C 83 % 8.91 C
17 02-06-2021 01:20:00 11.6 C 84 % 8.99 C
18 02-06-2021 01:25:00 11.6 C 83 % 8.81 C
19 02-06-2021 01:30:00 11.4 C 84 % 8.8 C
20 02-06-2021 01:35:00 11.4 C 84 % 8.8 C
21 02-06-2021 01:40:00 11.3 C 84 % 8.7 C
22 02-06-2021 01:45:00 11.2 C 84 % 8.6 C
23 02-06-2021 01:50:00 11.1 C 85 % 8.68 C
24 02-06-2021 01:55:00 11 C 85 % 8.58 C
25 02-06-2021 02:00:00 10.9 C 85 % 8.48 C
Sensor: Nr:Datum:Temp:Feuchte:Taupunkt:
Aussen-T/F 26 02-06-2021 02:05:00 10.8 C 86 % 8.56 C
27 02-06-2021 02:10:00 10.8 C 86 % 8.56 C
28 02-06-2021 02:15:00 10.7 C 86 % 8.46 C
29 02-06-2021 02:20:00 10.6 C 86 % 8.36 C
30 02-06-2021 02:25:00 10.6 C 87 % 8.53 C
31 02-06-2021 02:30:00 10.4 C 87 % 8.33 C
32 02-06-2021 02:35:00 10.4 C 87 % 8.33 C
33 02-06-2021 02:40:00 10.3 C 87 % 8.23 C
34 02-06-2021 02:45:00 10.3 C 87 % 8.23 C
35 02-06-2021 02:50:00 10.2 C 87 % 8.14 C
36 02-06-2021 02:55:00 10.2 C 88 % 8.3 C
37 02-06-2021 03:00:00 10.1 C 88 % 8.21 C
38 02-06-2021 03:05:00 10.1 C 88 % 8.21 C
39 02-06-2021 03:10:00 10 C 88 % 8.11 C
40 02-06-2021 03:15:00 9.9 C 88 % 8.01 C
41 02-06-2021 03:20:00 9.9 C 89 % 8.17 C
42 02-06-2021 03:25:00 9.8 C 89 % 8.08 C
43 02-06-2021 03:30:00 9.8 C 89 % 8.08 C
44 02-06-2021 03:35:00 9.7 C 89 % 7.98 C
45 02-06-2021 03:40:00 9.6 C 89 % 7.88 C
46 02-06-2021 03:45:00 9.6 C 89 % 7.88 C
47 02-06-2021 03:50:00 9.6 C 90 % 8.04 C
48 02-06-2021 03:55:00 9.5 C 90 % 7.94 C
49 02-06-2021 04:00:00 9.4 C 90 % 7.85 C
50 02-06-2021 04:05:00 9.4 C 90 % 7.85 C
Sensor: Nr:Datum:Temp:Feuchte:Taupunkt:
Aussen-T/F 51 02-06-2021 04:10:00 9.4 C 90 % 7.85 C
52 02-06-2021 04:15:00 9.4 C 91 % 8.01 C
53 02-06-2021 04:20:00 9.4 C 91 % 8.01 C
54 02-06-2021 04:25:00 9.5 C 91 % 8.11 C
55 02-06-2021 04:30:00 9.5 C 91 % 8.11 C
56 02-06-2021 04:35:00 9.6 C 91 % 8.21 C
57 02-06-2021 04:40:00 9.5 C 91 % 8.11 C
58 02-06-2021 04:45:00 9.4 C 91 % 8.01 C
59 02-06-2021 04:50:00 9.3 C 90 % 7.75 C
60 02-06-2021 04:55:00 9.2 C 91 % 7.81 C
61 02-06-2021 05:00:00 9.1 C 91 % 7.71 C
62 02-06-2021 05:05:00 9 C 91 % 7.61 C
63 02-06-2021 05:10:00 8.9 C 91 % 7.51 C
64 02-06-2021 05:15:00 8.8 C 91 % 7.41 C
65 02-06-2021 05:20:00 8.8 C 91 % 7.41 C
66 02-06-2021 05:25:00 8.7 C 91 % 7.32 C
67 02-06-2021 05:30:00 8.7 C 92 % 7.47 C
68 02-06-2021 05:35:00 8.6 C 92 % 7.38 C
69 02-06-2021 05:40:00 8.7 C 92 % 7.47 C
70 02-06-2021 05:45:00 8.6 C 92 % 7.38 C
71 02-06-2021 05:50:00 8.6 C 92 % 7.38 C
72 02-06-2021 05:55:00 8.6 C 92 % 7.38 C
73 02-06-2021 06:00:00 8.6 C 93 % 7.53 C
74 02-06-2021 06:05:00 8.7 C 93 % 7.63 C
75 02-06-2021 06:10:00 8.7 C 93 % 7.63 C
Sensor: Nr:Datum:Temp:Feuchte:Taupunkt:
Aussen-T/F 76 02-06-2021 06:15:00 8.7 C 93 % 7.63 C
77 02-06-2021 06:20:00 8.7 C 93 % 7.63 C
78 02-06-2021 06:25:00 8.7 C 93 % 7.63 C
79 02-06-2021 06:30:00 8.7 C 93 % 7.63 C
80 02-06-2021 06:35:00 8.7 C 93 % 7.63 C
81 02-06-2021 06:40:00 8.7 C 93 % 7.63 C
82 02-06-2021 06:45:00 8.7 C 93 % 7.63 C
83 02-06-2021 06:50:00 8.7 C 93 % 7.63 C
84 02-06-2021 06:55:00 8.8 C 94 % 7.89 C
85 02-06-2021 07:00:00 8.8 C 94 % 7.89 C
86 02-06-2021 07:05:00 8.9 C 94 % 7.99 C
87 02-06-2021 07:10:00 8.9 C 94 % 7.99 C
88 02-06-2021 07:15:00 8.9 C 94 % 7.99 C
89 02-06-2021 07:20:00 9.1 C 94 % 8.19 C
90 02-06-2021 07:25:00 9.1 C 94 % 8.19 C
91 02-06-2021 07:30:00 9.2 C 94 % 8.29 C
92 02-06-2021 07:35:00 9.2 C 94 % 8.29 C
93 02-06-2021 07:40:00 9.2 C 94 % 8.29 C
94 02-06-2021 07:45:00 9.3 C 94 % 8.39 C
95 02-06-2021 07:50:00 9.3 C 94 % 8.39 C
96 02-06-2021 07:55:00 9.4 C 94 % 8.48 C
97 02-06-2021 08:00:00 9.6 C 94 % 8.68 C
98 02-06-2021 08:05:00 9.7 C 95 % 8.94 C
99 02-06-2021 08:10:00 9.8 C 95 % 9.04 C
100 02-06-2021 08:15:00 9.9 C 95 % 9.14 C
Sensor: Nr:Datum:Temp:Feuchte:Taupunkt:
Aussen-T/F 101 02-06-2021 08:20:00 10 C 95 % 9.24 C
102 02-06-2021 08:25:00 10.1 C 95 % 9.34 C
103 02-06-2021 08:30:00 10.2 C 95 % 9.44 C
104 02-06-2021 08:35:00 10.4 C 95 % 9.63 C
105 02-06-2021 08:40:00 10.5 C 95 % 9.73 C
106 02-06-2021 08:45:00 10.7 C 95 % 9.93 C
107 02-06-2021 08:50:00 10.8 C 95 % 10.03 C
108 02-06-2021 08:55:00 11 C 95 % 10.23 C
109 02-06-2021 09:00:00 11.2 C 95 % 10.43 C
110 02-06-2021 09:05:00 11.4 C 95 % 10.63 C
111 02-06-2021 09:10:00 11.6 C 95 % 10.83 C
112 02-06-2021 09:15:00 11.7 C 95 % 10.93 C
113 02-06-2021 09:20:00 11.9 C 95 % 11.13 C
114 02-06-2021 09:25:00 12.1 C 95 % 11.32 C
115 02-06-2021 09:30:00 12.2 C 95 % 11.42 C
116 02-06-2021 09:35:00 12.4 C 95 % 11.62 C
117 02-06-2021 09:40:00 12.6 C 95 % 11.82 C
118 02-06-2021 09:45:00 12.8 C 94 % 11.86 C
119 02-06-2021 09:50:00 13 C 94 % 12.06 C
120 02-06-2021 09:55:00 13.2 C 94 % 12.26 C
121 02-06-2021 10:00:00 13.4 C 93 % 12.29 C
122 02-06-2021 10:05:00 13.7 C 93 % 12.59 C
123 02-06-2021 10:10:00 14.1 C 92 % 12.82 C
124 02-06-2021 10:15:00 14.6 C 91 % 13.15 C
125 02-06-2021 10:20:00 15.1 C 90 % 13.47 C
Sensor: Nr:Datum:Temp:Feuchte:Taupunkt:
Aussen-T/F 126 02-06-2021 10:25:00 15.7 C 86 % 13.37 C
127 02-06-2021 10:30:00 16.6 C 85 % 14.07 C
128 02-06-2021 10:35:00 17.2 C 83 % 14.29 C
129 02-06-2021 10:40:00 17.9 C 81 % 14.59 C
130 02-06-2021 10:45:00 18.4 C 79 % 14.69 C
131 02-06-2021 10:50:00 18.7 C 67 % 12.45 C
132 02-06-2021 10:55:00 19.4 C 63 % 12.18 C
133 02-06-2021 11:00:00 20.4 C 56 % 11.33 C
134 02-06-2021 11:05:00 20.9 C 55 % 11.53 C
135 02-06-2021 11:10:00 21.4 C 57 % 12.53 C
136 02-06-2021 11:15:00 21.7 C 55 % 12.27 C
137 02-06-2021 11:20:00 21.8 C 54 % 12.08 C
138 02-06-2021 11:25:00 22 C 48 % 10.49 C
139 02-06-2021 11:30:00 22.3 C 48 % 10.77 C
140 02-06-2021 11:35:00 22.4 C 47 % 10.54 C
141 02-06-2021 11:40:00 22.4 C 48 % 10.86 C
142 02-06-2021 11:45:00 22.5 C 48 % 10.95 C
143 02-06-2021 11:50:00 22.5 C 46 % 10.31 C
144 02-06-2021 11:55:00 22.6 C 48 % 11.04 C
145 02-06-2021 12:00:00 22.6 C 48 % 11.04 C
146 02-06-2021 12:05:00 22.7 C 46 % 10.49 C
147 02-06-2021 12:10:00 22.8 C 43 % 9.58 C
148 02-06-2021 12:15:00 23.1 C 41 % 9.14 C
149 02-06-2021 12:20:00 23.3 C 42 % 9.68 C
150 02-06-2021 12:25:00 23.5 C 40 % 9.13 C
Sensor: Nr:Datum:Temp:Feuchte:Taupunkt:
Aussen-T/F 151 02-06-2021 12:30:00 23.5 C 41 % 9.5 C
152 02-06-2021 12:35:00 23.6 C 42 % 9.94 C
153 02-06-2021 12:40:00 23.5 C 40 % 9.13 C
154 02-06-2021 12:45:00 23.6 C 42 % 9.94 C
155 02-06-2021 12:50:00 23.7 C 41 % 9.68 C
156 02-06-2021 12:55:00 23.9 C 38 % 8.73 C
157 02-06-2021 13:00:00 24.1 C 41 % 10.03 C
158 02-06-2021 13:05:00 24 C 39 % 9.2 C
159 02-06-2021 13:10:00 24 C 40 % 9.58 C
160 02-06-2021 13:15:00 24.1 C 39 % 9.29 C
161 02-06-2021 13:20:00 24.1 C 37 % 8.51 C
162 02-06-2021 13:25:00 24.1 C 38 % 8.9 C
163 02-06-2021 13:30:00 24.1 C 38 % 8.9 C
164 02-06-2021 13:35:00 24.2 C 37 % 8.6 C
165 02-06-2021 13:40:00 24.2 C 38 % 8.99 C
166 02-06-2021 13:45:00 24.2 C 34 % 7.36 C
167 02-06-2021 13:50:00 24.3 C 36 % 8.28 C
168 02-06-2021 13:55:00 24.6 C 38 % 9.35 C
169 02-06-2021 14:00:00 24.7 C 36 % 8.64 C
170 02-06-2021 14:05:00 24.9 C 35 % 8.4 C
171 02-06-2021 14:10:00 25.1 C 35 % 8.57 C
172 02-06-2021 14:15:00 25.2 C 34 % 8.23 C
173 02-06-2021 14:20:00 25.2 C 35 % 8.66 C
174 02-06-2021 14:25:00 25.3 C 33 % 7.88 C
175 02-06-2021 14:30:00 25.3 C 35 % 8.75 C
Sensor: Nr:Datum:Temp:Feuchte:Taupunkt:
Aussen-T/F 176 02-06-2021 14:35:00 25.4 C 35 % 8.84 C
177 02-06-2021 14:40:00 25.7 C 36 % 9.52 C
178 02-06-2021 14:45:00 25.9 C 34 % 8.85 C
179 02-06-2021 14:50:00 26 C 33 % 8.49 C
180 02-06-2021 14:55:00 26.1 C 33 % 8.58 C
181 02-06-2021 15:00:00 26.2 C 35 % 9.54 C
182 02-06-2021 15:05:00 26.3 C 33 % 8.75 C
183 02-06-2021 15:10:00 26.5 C 34 % 9.37 C
184 02-06-2021 15:15:00 26.6 C 35 % 9.89 C
185 02-06-2021 15:20:00 26.8 C 35 % 10.06 C
186 02-06-2021 15:25:00 26.9 C 33 % 9.28 C
187 02-06-2021 15:30:00 27.2 C 32 % 9.08 C
188 02-06-2021 15:35:00 27.5 C 32 % 9.34 C
189 02-06-2021 15:40:00 27.8 C 30 % 8.64 C
190 02-06-2021 15:45:00 27.9 C 30 % 8.73 C
191 02-06-2021 15:50:00 27.9 C 31 % 9.22 C
192 02-06-2021 15:55:00 27.9 C 31 % 9.22 C
193 02-06-2021 16:00:00 27.8 C 32 % 9.6 C
194 02-06-2021 16:05:00 28 C 32 % 9.77 C
195 02-06-2021 16:10:00 28.3 C 33 % 10.49 C
196 02-06-2021 16:15:00 28.6 C 32 % 10.29 C
197 02-06-2021 16:20:00 28.7 C 30 % 9.42 C
198 02-06-2021 16:25:00 28.7 C 30 % 9.42 C
199 02-06-2021 16:30:00 28.6 C 29 % 8.83 C
200 02-06-2021 16:35:00 28.7 C 33 % 10.84 C
Sensor: Nr:Datum:Temp:Feuchte:Taupunkt:
Aussen-T/F 201 02-06-2021 16:40:00 28.8 C 32 % 10.47 C
202 02-06-2021 16:45:00 28.8 C 29 % 9 C
203 02-06-2021 16:50:00 28.7 C 30 % 9.42 C
204 02-06-2021 16:55:00 28.5 C 30 % 9.25 C
205 02-06-2021 17:00:00 28.5 C 30 % 9.25 C
206 02-06-2021 17:05:00 28.7 C 33 % 10.84 C
207 02-06-2021 17:10:00 28.8 C 30 % 9.51 C
208 02-06-2021 17:15:00 28.7 C 32 % 10.38 C
209 02-06-2021 17:20:00 28.8 C 32 % 10.47 C
210 02-06-2021 17:25:00 28.8 C 30 % 9.51 C
211 02-06-2021 17:30:00 28.8 C 30 % 9.51 C
212 02-06-2021 17:35:00 28.6 C 31 % 9.82 C
213 02-06-2021 17:40:00 28.7 C 32 % 10.38 C
214 02-06-2021 17:45:00 28.7 C 30 % 9.42 C
215 02-06-2021 17:50:00 28.6 C 31 % 9.82 C
216 02-06-2021 17:55:00 28.5 C 31 % 9.73 C
217 02-06-2021 18:00:00 28.7 C 31 % 9.91 C
218 02-06-2021 18:05:00 28.8 C 32 % 10.47 C
219 02-06-2021 18:10:00 29.2 C 32 % 10.81 C
220 02-06-2021 18:15:00 29.5 C 36 % 12.86 C
221 02-06-2021 18:20:00 29.7 C 29 % 9.77 C
222 02-06-2021 18:25:00 29.4 C 30 % 10.02 C
223 02-06-2021 18:30:00 29.2 C 31 % 10.34 C
224 02-06-2021 18:35:00 29.2 C 30 % 9.85 C
225 02-06-2021 18:40:00 28.9 C 31 % 10.08 C
Sensor: Nr:Datum:Temp:Feuchte:Taupunkt:
Aussen-T/F 226 02-06-2021 18:45:00 28.8 C 34 % 11.38 C
227 02-06-2021 18:50:00 28.9 C 31 % 10.08 C
228 02-06-2021 18:55:00 29 C 32 % 10.64 C
229 02-06-2021 19:00:00 28.7 C 31 % 9.91 C
230 02-06-2021 19:05:00 28.5 C 32 % 10.21 C
231 02-06-2021 19:10:00 28.4 C 34 % 11.03 C
232 02-06-2021 19:15:00 28.3 C 32 % 10.03 C
233 02-06-2021 19:20:00 28.2 C 33 % 10.41 C
234 02-06-2021 19:25:00 28 C 34 % 10.68 C
235 02-06-2021 19:30:00 27.9 C 36 % 11.45 C
236 02-06-2021 19:35:00 27.7 C 36 % 11.28 C
237 02-06-2021 19:40:00 27.3 C 36 % 10.93 C
238 02-06-2021 19:45:00 27.2 C 36 % 10.84 C
239 02-06-2021 19:50:00 27.2 C 47 % 14.91 C
240 02-06-2021 19:55:00 27.1 C 48 % 15.15 C
241 02-06-2021 20:00:00 26.8 C 47 % 14.55 C
242 02-06-2021 20:05:00 26.6 C 48 % 14.69 C
243 02-06-2021 20:10:00 26.3 C 47 % 14.09 C
244 02-06-2021 20:15:00 26 C 49 % 14.46 C
245 02-06-2021 20:20:00 25.8 C 48 % 13.96 C
246 02-06-2021 20:25:00 25.5 C 48 % 13.69 C
247 02-06-2021 20:30:00 25.2 C 49 % 13.73 C
248 02-06-2021 20:35:00 24.9 C 50 % 13.77 C
249 02-06-2021 20:40:00 24.6 C 52 % 14.09 C
250 02-06-2021 20:45:00 24.1 C 52 % 13.63 C
Sensor: Nr:Datum:Temp:Feuchte:Taupunkt:
Aussen-T/F 251 02-06-2021 20:50:00 23.6 C 54 % 13.75 C
252 02-06-2021 20:55:00 23.1 C 55 % 13.57 C
253 02-06-2021 21:00:00 22.7 C 56 % 13.47 C
254 02-06-2021 21:05:00 22.3 C 55 % 12.83 C
255 02-06-2021 21:10:00 22 C 55 % 12.55 C
256 02-06-2021 21:15:00 21.7 C 57 % 12.81 C
257 02-06-2021 21:20:00 21.5 C 57 % 12.63 C
258 02-06-2021 21:25:00 21.3 C 57 % 12.44 C
259 02-06-2021 21:30:00 21.1 C 57 % 12.25 C
260 02-06-2021 21:35:00 20.8 C 57 % 11.97 C
261 02-06-2021 21:40:00 20.7 C 57 % 11.88 C
262 02-06-2021 21:45:00 20.4 C 57 % 11.6 C
263 02-06-2021 21:50:00 20.3 C 57 % 11.51 C
264 02-06-2021 21:55:00 20.2 C 58 % 11.68 C
265 02-06-2021 22:00:00 20.1 C 58 % 11.58 C
266 02-06-2021 22:05:00 19.9 C 58 % 11.4 C
267 02-06-2021 22:10:00 19.8 C 59 % 11.56 C
268 02-06-2021 22:15:00 19.8 C 60 % 11.82 C
269 02-06-2021 22:20:00 19.7 C 61 % 11.97 C
270 02-06-2021 22:25:00 19.6 C 63 % 12.37 C
271 02-06-2021 22:30:00 19.4 C 64 % 12.42 C
272 02-06-2021 22:35:00 19.3 C 63 % 12.09 C
273 02-06-2021 22:40:00 19.2 C 64 % 12.23 C
274 02-06-2021 22:45:00 19.1 C 64 % 12.14 C
275 02-06-2021 22:50:00 19.1 C 65 % 12.37 C
Sensor: Nr:Datum:Temp:Feuchte:Taupunkt:
Aussen-T/F 276 02-06-2021 22:55:00 19 C 66 % 12.51 C
277 02-06-2021 23:00:00 18.9 C 67 % 12.64 C
278 02-06-2021 23:05:00 18.8 C 67 % 12.55 C
279 02-06-2021 23:10:00 18.7 C 68 % 12.68 C
280 02-06-2021 23:15:00 18.6 C 69 % 12.8 C
281 02-06-2021 23:20:00 18.5 C 70 % 12.93 C
282 02-06-2021 23:25:00 18.4 C 70 % 12.83 C
283 02-06-2021 23:30:00 18.3 C 71 % 12.95 C
284 02-06-2021 23:35:00 18.2 C 72 % 13.07 C
285 02-06-2021 23:40:00 18.2 C 71 % 12.86 C
286 02-06-2021 23:45:00 18.1 C 71 % 12.76 C
287 02-06-2021 23:50:00 17.9 C 72 % 12.78 C
288 02-06-2021 23:55:00 17.8 C 72 % 12.69 C
289 03-06-2021 00:00:00 17.7 C 72 % 12.59 C
290 03-06-2021 00:05:00 17.6 C 72 % 12.5 C
291 03-06-2021 00:10:00 17.5 C 72 % 12.4 C
292 03-06-2021 00:15:00 17.4 C 74 % 12.72 C
293 03-06-2021 00:20:00 17.3 C 74 % 12.62 C
294 03-06-2021 00:25:00 17.2 C 75 % 12.73 C
295 03-06-2021 00:30:00 17.2 C 76 % 12.94 C
296 03-06-2021 00:35:00 17.2 C 76 % 12.94 C
297 03-06-2021 00:40:00 17.2 C 76 % 12.94 C
298 03-06-2021 00:45:00 17.1 C 77 % 13.04 C
299 03-06-2021 00:50:00 17.1 C 78 % 13.24 C
300 03-06-2021 00:55:00 17 C 78 % 13.14 C
Sensor: Nr:Datum:Temp:Feuchte:Taupunkt:
Aussen-T/F 301 03-06-2021 01:00:00 16.9 C 79 % 13.24 C
302 03-06-2021 01:05:00 16.9 C 80 % 13.43 C
303 03-06-2021 01:10:00 16.9 C 80 % 13.43 C
304 03-06-2021 01:15:00 16.8 C 80 % 13.33 C
305 03-06-2021 01:20:00 16.8 C 80 % 13.33 C
306 03-06-2021 01:25:00 16.7 C 81 % 13.43 C
307 03-06-2021 01:30:00 16.7 C 81 % 13.43 C
308 03-06-2021 01:35:00 16.6 C 81 % 13.33 C
309 03-06-2021 01:40:00 16.6 C 81 % 13.33 C
310 03-06-2021 01:45:00 16.6 C 81 % 13.33 C
311 03-06-2021 01:50:00 16.4 C 81 % 13.13 C
312 03-06-2021 01:55:00 16.4 C 81 % 13.13 C
313 03-06-2021 02:00:00 16.4 C 81 % 13.13 C
314 03-06-2021 02:05:00 16.3 C 81 % 13.04 C
315 03-06-2021 02:10:00 16.3 C 80 % 12.85 C
316 03-06-2021 02:15:00 16.2 C 80 % 12.75 C
317 03-06-2021 02:20:00 16.2 C 81 % 12.94 C
318 03-06-2021 02:25:00 16.1 C 81 % 12.84 C
319 03-06-2021 02:30:00 16 C 81 % 12.74 C
320 03-06-2021 02:35:00 15.9 C 81 % 12.65 C
321 03-06-2021 02:40:00 15.9 C 82 % 12.83 C
322 03-06-2021 02:45:00 15.8 C 82 % 12.74 C
323 03-06-2021 02:50:00 15.8 C 83 % 12.92 C
324 03-06-2021 02:55:00 15.7 C 83 % 12.82 C
325 03-06-2021 03:00:00 15.6 C 83 % 12.72 C
Sensor: Nr:Datum:Temp:Feuchte:Taupunkt:
Aussen-T/F 326 03-06-2021 03:05:00 15.6 C 83 % 12.72 C
327 03-06-2021 03:10:00 15.5 C 83 % 12.63 C
328 03-06-2021 03:15:00 15.4 C 84 % 12.71 C
329 03-06-2021 03:20:00 15.3 C 84 % 12.61 C
330 03-06-2021 03:25:00 15.2 C 85 % 12.7 C
331 03-06-2021 03:30:00 15.2 C 85 % 12.7 C
332 03-06-2021 03:35:00 15.1 C 85 % 12.6 C
333 03-06-2021 03:40:00 15 C 86 % 12.68 C
334 03-06-2021 03:45:00 15 C 87 % 12.86 C
335 03-06-2021 03:50:00 15 C 87 % 12.86 C
336 03-06-2021 03:55:00 15 C 88 % 13.03 C
337 03-06-2021 04:00:00 15.1 C 88 % 13.13 C
338 03-06-2021 04:05:00 15.1 C 88 % 13.13 C
339 03-06-2021 04:10:00 15.1 C 88 % 13.13 C
340 03-06-2021 04:15:00 15.1 C 88 % 13.13 C
341 03-06-2021 04:20:00 15 C 88 % 13.03 C
342 03-06-2021 04:25:00 15 C 88 % 13.03 C
343 03-06-2021 04:30:00 14.9 C 88 % 12.93 C
344 03-06-2021 04:35:00 14.9 C 88 % 12.93 C
345 03-06-2021 04:40:00 14.8 C 88 % 12.83 C
346 03-06-2021 04:45:00 14.8 C 88 % 12.83 C
347 03-06-2021 04:50:00 14.7 C 88 % 12.73 C
348 03-06-2021 04:55:00 14.6 C 88 % 12.64 C
349 03-06-2021 05:00:00 14.6 C 89 % 12.81 C
350 03-06-2021 05:05:00 14.6 C 89 % 12.81 C
Sensor: Nr:Datum:Temp:Feuchte:Taupunkt:
Aussen-T/F 351 03-06-2021 05:10:00 14.5 C 89 % 12.71 C
352 03-06-2021 05:15:00 14.5 C 90 % 12.88 C
353 03-06-2021 05:20:00 14.5 C 90 % 12.88 C
354 03-06-2021 05:25:00 14.4 C 90 % 12.78 C
355 03-06-2021 05:30:00 14.4 C 90 % 12.78 C
356 03-06-2021 05:35:00 14.4 C 90 % 12.78 C
357 03-06-2021 05:40:00 14.4 C 90 % 12.78 C
358 03-06-2021 05:45:00 14.4 C 91 % 12.95 C
359 03-06-2021 05:50:00 14.5 C 91 % 13.05 C
360 03-06-2021 05:55:00 14.6 C 91 % 13.15 C
361 03-06-2021 06:00:00 14.6 C 92 % 13.32 C
362 03-06-2021 06:05:00 14.7 C 92 % 13.41 C
363 03-06-2021 06:10:00 14.8 C 92 % 13.51 C
364 03-06-2021 06:15:00 14.9 C 92 % 13.61 C
365 03-06-2021 06:20:00 14.9 C 92 % 13.61 C
366 03-06-2021 06:25:00 15.1 C 92 % 13.81 C
367 03-06-2021 06:30:00 15.2 C 92 % 13.91 C
368 03-06-2021 06:35:00 15.3 C 92 % 14.01 C
369 03-06-2021 06:40:00 15.3 C 92 % 14.01 C
370 03-06-2021 06:45:00 15.4 C 91 % 13.94 C
371 03-06-2021 06:50:00 15.4 C 91 % 13.94 C
372 03-06-2021 06:55:00 15.5 C 92 % 14.21 C
373 03-06-2021 07:00:00 15.6 C 92 % 14.31 C
374 03-06-2021 07:05:00 15.6 C 92 % 14.31 C
375 03-06-2021 07:10:00 15.7 C 92 % 14.4 C
Sensor: Nr:Datum:Temp:Feuchte:Taupunkt:
Aussen-T/F 376 03-06-2021 07:15:00 15.7 C 91 % 14.24 C
377 03-06-2021 07:20:00 15.8 C 91 % 14.33 C
378 03-06-2021 07:25:00 15.8 C 91 % 14.33 C
379 03-06-2021 07:30:00 15.8 C 91 % 14.33 C
380 03-06-2021 07:35:00 15.9 C 91 % 14.43 C
381 03-06-2021 07:40:00 15.9 C 91 % 14.43 C
382 03-06-2021 07:45:00 16.1 C 92 % 14.8 C
383 03-06-2021 07:50:00 16.2 C 92 % 14.9 C
384 03-06-2021 07:55:00 16.3 C 91 % 14.83 C
385 03-06-2021 08:00:00 16.3 C 91 % 14.83 C
386 03-06-2021 08:05:00 16.4 C 91 % 14.93 C
387 03-06-2021 08:10:00 16.6 C 90 % 14.95 C
388 03-06-2021 08:15:00 16.7 C 90 % 15.05 C
389 03-06-2021 08:20:00 16.9 C 89 % 15.08 C
390 03-06-2021 08:25:00 17.1 C 89 % 15.27 C
391 03-06-2021 08:30:00 17.3 C 88 % 15.29 C
392 03-06-2021 08:35:00 17.5 C 87 % 15.31 C
393 03-06-2021 08:40:00 17.8 C 87 % 15.61 C
394 03-06-2021 08:45:00 17.9 C 87 % 15.71 C
395 03-06-2021 08:50:00 18.2 C 86 % 15.82 C
396 03-06-2021 08:55:00 18.4 C 84 % 15.65 C
397 03-06-2021 09:00:00 18.6 C 84 % 15.84 C
398 03-06-2021 09:05:00 18.7 C 83 % 15.75 C
399 03-06-2021 09:10:00 18.9 C 83 % 15.95 C
400 03-06-2021 09:15:00 19.1 C 83 % 16.15 C
Sensor: Nr:Datum:Temp:Feuchte:Taupunkt:
Aussen-T/F 401 03-06-2021 09:20:00 19.2 C 82 % 16.05 C
402 03-06-2021 09:25:00 19.3 C 81 % 15.96 C
403 03-06-2021 09:30:00 19.3 C 80 % 15.76 C
404 03-06-2021 09:35:00 19.3 C 80 % 15.76 C
405 03-06-2021 09:40:00 19.4 C 80 % 15.86 C
406 03-06-2021 09:45:00 19.5 C 81 % 16.15 C
407 03-06-2021 09:50:00 19.7 C 81 % 16.35 C
408 03-06-2021 09:55:00 19.9 C 80 % 16.35 C
409 03-06-2021 10:00:00 20.1 C 79 % 16.34 C
410 03-06-2021 10:05:00 20.3 C 79 % 16.54 C
411 03-06-2021 10:10:00 20.4 C 79 % 16.64 C
412 03-06-2021 10:15:00 20.6 C 78 % 16.63 C
413 03-06-2021 10:20:00 20.8 C 78 % 16.82 C
414 03-06-2021 10:25:00 21.1 C 79 % 17.32 C
415 03-06-2021 10:30:00 21.4 C 77 % 17.2 C
416 03-06-2021 10:35:00 21.8 C 74 % 16.96 C
417 03-06-2021 10:40:00 22.1 C 72 % 16.82 C
418 03-06-2021 10:45:00 22.3 C 72 % 17.01 C
419 03-06-2021 10:50:00 22.5 C 72 % 17.2 C
420 03-06-2021 10:55:00 22.7 C 69 % 16.72 C
421 03-06-2021 11:00:00 22.8 C 70 % 17.04 C
422 03-06-2021 11:05:00 22.9 C 69 % 16.91 C
423 03-06-2021 11:10:00 23.1 C 71 % 17.55 C
424 03-06-2021 11:15:00 23.2 C 70 % 17.42 C
425 03-06-2021 11:20:00 23.3 C 70 % 17.52 C
Sensor: Nr:Datum:Temp:Feuchte:Taupunkt:
Aussen-T/F 426 03-06-2021 11:25:00 23.5 C 69 % 17.48 C
427 03-06-2021 11:30:00 23.5 C 68 % 17.25 C
428 03-06-2021 11:35:00 23.5 C 71 % 17.94 C
429 03-06-2021 11:40:00 23.4 C 73 % 18.28 C
430 03-06-2021 11:45:00 23.3 C 70 % 17.52 C
431 03-06-2021 11:50:00 23.3 C 73 % 18.19 C
432 03-06-2021 11:55:00 23.4 C 69 % 17.39 C
433 03-06-2021 12:00:00 23.6 C 69 % 17.58 C
434 03-06-2021 12:05:00 23.8 C 67 % 17.3 C
435 03-06-2021 12:10:00 23.9 C 68 % 17.63 C
436 03-06-2021 12:15:00 24.2 C 67 % 17.68 C
437 03-06-2021 12:20:00 24.2 C 66 % 17.45 C
438 03-06-2021 12:25:00 24.3 C 71 % 18.7 C
439 03-06-2021 12:30:00 24.4 C 73 % 19.24 C
440 03-06-2021 12:35:00 24.3 C 75 % 19.58 C
441 03-06-2021 12:40:00 24.1 C 77 % 19.81 C
442 03-06-2021 12:45:00 23.8 C 78 % 19.73 C
443 03-06-2021 12:50:00 23.4 C 80 % 19.75 C
444 03-06-2021 12:55:00 23.3 C 81 % 19.85 C
445 03-06-2021 13:00:00 23.3 C 81 % 19.85 C
446 03-06-2021 13:05:00 23.3 C 77 % 19.04 C
447 03-06-2021 13:10:00 23.6 C 77 % 19.33 C
448 03-06-2021 13:15:00 23.9 C 75 % 19.2 C
449 03-06-2021 13:20:00 24 C 72 % 18.64 C
450 03-06-2021 13:25:00 23.7 C 74 % 18.79 C
Sensor: Nr:Datum:Temp:Feuchte:Taupunkt:
Aussen-T/F 451 03-06-2021 13:30:00 23.2 C 76 % 18.73 C
452 03-06-2021 13:35:00 23 C 77 % 18.75 C
453 03-06-2021 13:40:00 22.8 C 78 % 18.76 C
454 03-06-2021 13:45:00 22.7 C 79 % 18.87 C
455 03-06-2021 13:50:00 22.6 C 77 % 18.36 C
456 03-06-2021 13:55:00 22.5 C 77 % 18.27 C
457 03-06-2021 14:00:00 22.5 C 75 % 17.85 C
458 03-06-2021 14:05:00 22.6 C 74 % 17.73 C
459 03-06-2021 14:10:00 22.4 C 74 % 17.54 C
460 03-06-2021 14:15:00 22.3 C 75 % 17.65 C
461 03-06-2021 14:20:00 22.1 C 80 % 18.49 C
462 03-06-2021 14:25:00 21.9 C 82 % 18.69 C
463 03-06-2021 14:30:00 21.9 C 86 % 19.45 C
464 03-06-2021 14:35:00 21.7 C 86 % 19.25 C
465 03-06-2021 14:40:00 21.6 C 85 % 18.97 C
466 03-06-2021 14:45:00 21.7 C 84 % 18.88 C
467 03-06-2021 14:50:00 21.7 C 85 % 19.07 C
468 03-06-2021 14:55:00 21.8 C 86 % 19.35 C
469 03-06-2021 15:00:00 21.8 C 86 % 19.35 C
470 03-06-2021 15:05:00 21.8 C 86 % 19.35 C
471 03-06-2021 15:10:00 22 C 88 % 19.92 C
472 03-06-2021 15:15:00 22.2 C 88 % 20.12 C
473 03-06-2021 15:20:00 22.6 C 87 % 20.32 C
474 03-06-2021 15:25:00 22.6 C 85 % 19.95 C
475 03-06-2021 15:30:00 22.8 C 86 % 20.33 C
Sensor: Nr:Datum:Temp:Feuchte:Taupunkt:
Aussen-T/F 476 03-06-2021 15:35:00 22.9 C 85 % 20.24 C
477 03-06-2021 15:40:00 23.1 C 85 % 20.44 C
478 03-06-2021 15:45:00 23.4 C 83 % 20.35 C
479 03-06-2021 15:50:00 23.8 C 81 % 20.34 C
480 03-06-2021 15:55:00 24.3 C 80 % 20.63 C
481 03-06-2021 16:00:00 24.8 C 78 % 20.7 C
482 03-06-2021 16:05:00 25 C 72 % 19.6 C
483 03-06-2021 16:10:00 25.3 C 76 % 20.76 C
484 03-06-2021 16:15:00 25.5 C 73 % 20.3 C
485 03-06-2021 16:20:00 25.6 C 75 % 20.84 C
486 03-06-2021 16:25:00 25.5 C 75 % 20.74 C
487 03-06-2021 16:30:00 25.5 C 79 % 21.59 C
488 03-06-2021 16:35:00 25.4 C 76 % 20.86 C
489 03-06-2021 16:40:00 25.4 C 76 % 20.86 C
490 03-06-2021 16:45:00 25.3 C 77 % 20.97 C
491 03-06-2021 16:50:00 25.3 C 80 % 21.6 C
492 03-06-2021 16:55:00 25.3 C 82 % 22 C
493 03-06-2021 17:00:00 25.2 C 82 % 21.91 C
494 03-06-2021 17:05:00 25.1 C 82 % 21.81 C
495 03-06-2021 17:10:00 24.9 C 83 % 21.81 C
496 03-06-2021 17:15:00 24.8 C 83 % 21.71 C
497 03-06-2021 17:20:00 24.6 C 84 % 21.71 C
498 03-06-2021 17:25:00 24.3 C 83 % 21.22 C
499 03-06-2021 17:30:00 24.2 C 84 % 21.32 C
500 03-06-2021 17:35:00 23.9 C 84 % 21.03 C
Sensor: Nr:Datum:Temp:Feuchte:Taupunkt:
Aussen-T/F 501 03-06-2021 17:40:00 23.7 C 84 % 20.83 C
502 03-06-2021 17:45:00 23.5 C 84 % 20.64 C
503 03-06-2021 17:50:00 23.3 C 85 % 20.63 C
504 03-06-2021 17:55:00 23 C 85 % 20.34 C
505 03-06-2021 18:00:00 22.8 C 86 % 20.33 C
506 03-06-2021 18:05:00 22.7 C 86 % 20.24 C
507 03-06-2021 18:10:00 22.5 C 87 % 20.23 C
508 03-06-2021 18:15:00 22.2 C 85 % 19.56 C
509 03-06-2021 18:20:00 22.1 C 88 % 20.02 C
510 03-06-2021 18:25:00 21.9 C 88 % 19.82 C
511 03-06-2021 18:30:00 21.8 C 89 % 19.9 C
512 03-06-2021 18:35:00 21.6 C 88 % 19.53 C
513 03-06-2021 18:40:00 21.4 C 88 % 19.33 C
514 03-06-2021 18:45:00 21.1 C 87 % 18.85 C
515 03-06-2021 18:50:00 20.8 C 88 % 18.74 C
516 03-06-2021 18:55:00 20.4 C 89 % 18.53 C
517 03-06-2021 19:00:00 20.2 C 90 % 18.51 C
518 03-06-2021 19:05:00 20.1 C 90 % 18.41 C
519 03-06-2021 19:10:00 19.9 C 91 % 18.39 C
520 03-06-2021 19:15:00 19.9 C 92 % 18.56 C
521 03-06-2021 19:20:00 19.9 C 93 % 18.73 C
522 03-06-2021 19:25:00 20.1 C 94 % 19.1 C
523 03-06-2021 19:30:00 20.2 C 94 % 19.2 C
524 03-06-2021 19:35:00 20.3 C 94 % 19.3 C
525 03-06-2021 19:40:00 20.3 C 94 % 19.3 C
Sensor: Nr:Datum:Temp:Feuchte:Taupunkt:
Aussen-T/F 526 03-06-2021 19:45:00 20.3 C 94 % 19.3 C
527 03-06-2021 19:50:00 20.2 C 94 % 19.2 C
528 03-06-2021 19:55:00 20.2 C 94 % 19.2 C
529 03-06-2021 20:00:00 20.1 C 94 % 19.1 C
530 03-06-2021 20:05:00 20.1 C 94 % 19.1 C
531 03-06-2021 20:10:00 19.9 C 93 % 18.73 C
532 03-06-2021 20:15:00 19.8 C 93 % 18.63 C
533 03-06-2021 20:20:00 19.6 C 93 % 18.44 C
534 03-06-2021 20:25:00 19.4 C 93 % 18.24 C
535 03-06-2021 20:30:00 19.3 C 93 % 18.14 C
536 03-06-2021 20:35:00 19.3 C 94 % 18.31 C
537 03-06-2021 20:40:00 19.2 C 93 % 18.04 C
538 03-06-2021 20:45:00 19.1 C 94 % 18.11 C
539 03-06-2021 20:50:00 18.9 C 94 % 17.91 C
540 03-06-2021 20:55:00 18.9 C 94 % 17.91 C
541 03-06-2021 21:00:00 18.8 C 94 % 17.81 C
542 03-06-2021 21:05:00 18.7 C 94 % 17.71 C
543 03-06-2021 21:10:00 18.6 C 94 % 17.62 C
544 03-06-2021 21:15:00 18.6 C 94 % 17.62 C
545 03-06-2021 21:20:00 18.4 C 94 % 17.42 C
546 03-06-2021 21:25:00 18.4 C 94 % 17.42 C
547 03-06-2021 21:30:00 18.3 C 94 % 17.32 C
548 03-06-2021 21:35:00 18.3 C 95 % 17.48 C
549 03-06-2021 21:40:00 18.3 C 95 % 17.48 C
550 03-06-2021 21:45:00 18.3 C 95 % 17.48 C
Sensor: Nr:Datum:Temp:Feuchte:Taupunkt:
Aussen-T/F 551 03-06-2021 21:50:00 18.2 C 95 % 17.39 C
552 03-06-2021 21:55:00 18.2 C 95 % 17.39 C
553 03-06-2021 22:00:00 18.2 C 95 % 17.39 C
554 03-06-2021 22:05:00 18.2 C 95 % 17.39 C
555 03-06-2021 22:10:00 18.1 C 95 % 17.29 C
556 03-06-2021 22:15:00 18.1 C 95 % 17.29 C
557 03-06-2021 22:20:00 18.1 C 95 % 17.29 C
558 03-06-2021 22:25:00 18.1 C 95 % 17.29 C
559 03-06-2021 22:30:00 18 C 95 % 17.19 C
560 03-06-2021 22:35:00 17.9 C 95 % 17.09 C
561 03-06-2021 22:40:00 17.9 C 95 % 17.09 C
562 03-06-2021 22:45:00 17.9 C 95 % 17.09 C
563 03-06-2021 22:50:00 17.8 C 95 % 16.99 C
564 03-06-2021 22:55:00 17.8 C 95 % 16.99 C
565 03-06-2021 23:00:00 17.7 C 95 % 16.89 C
566 03-06-2021 23:05:00 17.7 C 95 % 16.89 C
567 03-06-2021 23:10:00 17.7 C 95 % 16.89 C
568 03-06-2021 23:15:00 17.6 C 95 % 16.79 C
569 03-06-2021 23:20:00 17.6 C 96 % 16.95 C
570 03-06-2021 23:25:00 17.6 C 96 % 16.95 C
571 03-06-2021 23:30:00 17.6 C 96 % 16.95 C
572 03-06-2021 23:35:00 17.5 C 95 % 16.69 C
573 03-06-2021 23:40:00 17.4 C 95 % 16.59 C
574 03-06-2021 23:45:00 17.4 C 95 % 16.59 C
575 03-06-2021 23:50:00 17.4 C 96 % 16.76 C
Sensor: Nr:Datum:Temp:Feuchte:Taupunkt:
Aussen-T/F 576 03-06-2021 23:55:00 17.3 C 96 % 16.66 C
577 04-06-2021 00:00:00 17.3 C 96 % 16.66 C
578 04-06-2021 00:05:00 17.2 C 96 % 16.56 C
579 04-06-2021 00:10:00 17.2 C 96 % 16.56 C
580 04-06-2021 00:15:00 17.1 C 96 % 16.46 C
581 04-06-2021 00:20:00 17.1 C 96 % 16.46 C
582 04-06-2021 00:25:00 17.1 C 96 % 16.46 C
583 04-06-2021 00:30:00 17.1 C 96 % 16.46 C
584 04-06-2021 00:35:00 17.1 C 96 % 16.46 C
585 04-06-2021 00:40:00 17 C 96 % 16.36 C
586 04-06-2021 00:45:00 16.9 C 96 % 16.26 C
587 04-06-2021 00:50:00 16.9 C 96 % 16.26 C
588 04-06-2021 00:55:00 16.9 C 96 % 16.26 C
589 04-06-2021 01:00:00 16.8 C 96 % 16.16 C
590 04-06-2021 01:05:00 16.8 C 96 % 16.16 C
591 04-06-2021 01:10:00 16.8 C 96 % 16.16 C
592 04-06-2021 01:15:00 16.8 C 96 % 16.16 C
593 04-06-2021 01:20:00 16.8 C 96 % 16.16 C
594 04-06-2021 01:25:00 16.7 C 96 % 16.06 C
595 04-06-2021 01:30:00 16.7 C 96 % 16.06 C
596 04-06-2021 01:35:00 16.7 C 96 % 16.06 C
597 04-06-2021 01:40:00 16.6 C 96 % 15.96 C
598 04-06-2021 01:45:00 16.6 C 96 % 15.96 C
599 04-06-2021 01:50:00 16.6 C 96 % 15.96 C
600 04-06-2021 01:55:00 16.5 C 96 % 15.86 C
Sensor: Nr:Datum:Temp:Feuchte:Taupunkt:
Aussen-T/F 601 04-06-2021 02:00:00 16.4 C 96 % 15.76 C
602 04-06-2021 02:05:00 16.4 C 96 % 15.76 C
603 04-06-2021 02:10:00 16.4 C 96 % 15.76 C
604 04-06-2021 02:15:00 16.4 C 96 % 15.76 C
605 04-06-2021 02:20:00 16.3 C 96 % 15.66 C
606 04-06-2021 02:25:00 16.3 C 96 % 15.66 C
607 04-06-2021 02:30:00 16.4 C 96 % 15.76 C
608 04-06-2021 02:35:00 16.4 C 96 % 15.76 C
609 04-06-2021 02:40:00 16.4 C 96 % 15.76 C
610 04-06-2021 02:45:00 16.4 C 96 % 15.76 C
611 04-06-2021 02:50:00 16.4 C 96 % 15.76 C
612 04-06-2021 02:55:00 16.4 C 96 % 15.76 C
613 04-06-2021 03:00:00 16.4 C 96 % 15.76 C
614 04-06-2021 03:05:00 16.4 C 96 % 15.76 C
615 04-06-2021 03:10:00 16.5 C 96 % 15.86 C
616 04-06-2021 03:15:00 16.5 C 96 % 15.86 C
617 04-06-2021 03:20:00 16.5 C 96 % 15.86 C
618 04-06-2021 03:25:00 16.6 C 96 % 15.96 C
619 04-06-2021 03:30:00 16.5 C 96 % 15.86 C
620 04-06-2021 03:35:00 16.4 C 96 % 15.76 C
621 04-06-2021 03:40:00 16.4 C 96 % 15.76 C
622 04-06-2021 03:45:00 16.3 C 97 % 15.82 C
623 04-06-2021 03:50:00 16.3 C 96 % 15.66 C
624 04-06-2021 03:55:00 16.2 C 96 % 15.56 C
625 04-06-2021 04:00:00 16.2 C 96 % 15.56 C
Sensor: Nr:Datum:Temp:Feuchte:Taupunkt:
Aussen-T/F 626 04-06-2021 04:05:00 16.1 C 96 % 15.46 C
627 04-06-2021 04:10:00 16.1 C 96 % 15.46 C
628 04-06-2021 04:15:00 16 C 96 % 15.36 C
629 04-06-2021 04:20:00 15.9 C 97 % 15.42 C
630 04-06-2021 04:25:00 15.9 C 97 % 15.42 C
631 04-06-2021 04:30:00 15.8 C 97 % 15.32 C
632 04-06-2021 04:35:00 15.8 C 96 % 15.16 C
633 04-06-2021 04:40:00 15.7 C 96 % 15.06 C
634 04-06-2021 04:45:00 15.7 C 96 % 15.06 C
635 04-06-2021 04:50:00 15.7 C 97 % 15.23 C
636 04-06-2021 04:55:00 15.7 C 97 % 15.23 C
637 04-06-2021 05:00:00 15.7 C 97 % 15.23 C
638 04-06-2021 05:05:00 15.7 C 97 % 15.23 C
639 04-06-2021 05:10:00 15.7 C 97 % 15.23 C
640 04-06-2021 05:15:00 15.8 C 97 % 15.32 C
641 04-06-2021 05:20:00 15.9 C 97 % 15.42 C
642 04-06-2021 05:25:00 15.9 C 97 % 15.42 C
643 04-06-2021 05:30:00 16 C 97 % 15.52 C
644 04-06-2021 05:35:00 16.1 C 97 % 15.62 C
645 04-06-2021 05:40:00 16.1 C 97 % 15.62 C
646 04-06-2021 05:45:00 16.1 C 97 % 15.62 C
647 04-06-2021 05:50:00 16.2 C 97 % 15.72 C
648 04-06-2021 05:55:00 16.3 C 97 % 15.82 C
649 04-06-2021 06:00:00 16.4 C 97 % 15.92 C
650 04-06-2021 06:05:00 16.6 C 97 % 16.12 C
Sensor: Nr:Datum:Temp:Feuchte:Taupunkt:
Aussen-T/F 651 04-06-2021 06:10:00 16.6 C 97 % 16.12 C
652 04-06-2021 06:15:00 16.6 C 97 % 16.12 C
653 04-06-2021 06:20:00 16.6 C 97 % 16.12 C
654 04-06-2021 06:25:00 16.6 C 97 % 16.12 C
655 04-06-2021 06:30:00 16.6 C 97 % 16.12 C
656 04-06-2021 06:35:00 16.6 C 97 % 16.12 C
657 04-06-2021 06:40:00 16.7 C 97 % 16.22 C
658 04-06-2021 06:45:00 16.7 C 97 % 16.22 C
659 04-06-2021 06:50:00 16.7 C 97 % 16.22 C
660 04-06-2021 06:55:00 16.7 C 97 % 16.22 C
661 04-06-2021 07:00:00 16.8 C 97 % 16.32 C
662 04-06-2021 07:05:00 16.8 C 97 % 16.32 C
663 04-06-2021 07:10:00 16.8 C 97 % 16.32 C
664 04-06-2021 07:15:00 16.8 C 97 % 16.32 C
665 04-06-2021 07:20:00 16.8 C 97 % 16.32 C
666 04-06-2021 07:25:00 16.9 C 97 % 16.42 C
667 04-06-2021 07:30:00 16.9 C 97 % 16.42 C
668 04-06-2021 07:35:00 16.9 C 97 % 16.42 C
669 04-06-2021 07:40:00 16.9 C 97 % 16.42 C
670 04-06-2021 07:45:00 17 C 97 % 16.52 C
671 04-06-2021 07:50:00 17.1 C 97 % 16.62 C
672 04-06-2021 07:55:00 17.2 C 97 % 16.72 C
673 04-06-2021 08:00:00 17.2 C 97 % 16.72 C
674 04-06-2021 08:05:00 17.2 C 97 % 16.72 C
675 04-06-2021 08:10:00 17.3 C 97 % 16.82 C
Sensor: Nr:Datum:Temp:Feuchte:Taupunkt:
Aussen-T/F 676 04-06-2021 08:15:00 17.4 C 98 % 17.08 C
677 04-06-2021 08:20:00 17.6 C 97 % 17.12 C
678 04-06-2021 08:25:00 17.6 C 97 % 17.12 C
679 04-06-2021 08:30:00 17.7 C 97 % 17.22 C
680 04-06-2021 08:35:00 17.6 C 97 % 17.12 C
681 04-06-2021 08:40:00 17.6 C 97 % 17.12 C
682 04-06-2021 08:45:00 17.7 C 97 % 17.22 C
683 04-06-2021 08:50:00 17.8 C 98 % 17.48 C
684 04-06-2021 08:55:00 17.8 C 97 % 17.32 C
685 04-06-2021 09:00:00 17.8 C 97 % 17.32 C
686 04-06-2021 09:05:00 18 C 97 % 17.52 C
687 04-06-2021 09:10:00 18.1 C 98 % 17.78 C
688 04-06-2021 09:15:00 18.1 C 97 % 17.62 C
689 04-06-2021 09:20:00 18.2 C 97 % 17.72 C
690 04-06-2021 09:25:00 18.3 C 97 % 17.82 C
691 04-06-2021 09:30:00 18.3 C 97 % 17.82 C
692 04-06-2021 09:35:00 18.4 C 97 % 17.91 C
693 04-06-2021 09:40:00 18.4 C 97 % 17.91 C
694 04-06-2021 09:45:00 18.5 C 97 % 18.01 C
695 04-06-2021 09:50:00 18.6 C 97 % 18.11 C
696 04-06-2021 09:55:00 18.7 C 97 % 18.21 C
697 04-06-2021 10:00:00 18.7 C 97 % 18.21 C
698 04-06-2021 10:05:00 18.8 C 97 % 18.31 C
699 04-06-2021 10:10:00 19.1 C 97 % 18.61 C
700 04-06-2021 10:15:00 19.4 C 98 % 19.08 C
Sensor: Nr:Datum:Temp:Feuchte:Taupunkt:
Aussen-T/F 701 04-06-2021 10:20:00 19.8 C 98 % 19.47 C
702 04-06-2021 10:25:00 20.2 C 98 % 19.87 C
703 04-06-2021 10:30:00 20.4 C 97 % 19.91 C
704 04-06-2021 10:35:00 20.7 C 97 % 20.21 C
705 04-06-2021 10:40:00 20.9 C 97 % 20.41 C
706 04-06-2021 10:45:00 21 C 96 % 20.34 C
707 04-06-2021 10:50:00 20.9 C 96 % 20.24 C
708 04-06-2021 10:55:00 20.9 C 95 % 20.07 C
709 04-06-2021 11:00:00 20.9 C 96 % 20.24 C
710 04-06-2021 11:05:00 20.9 C 95 % 20.07 C
711 04-06-2021 11:10:00 21 C 95 % 20.17 C
712 04-06-2021 11:15:00 21.1 C 95 % 20.27 C
713 04-06-2021 11:20:00 21.1 C 94 % 20.1 C
714 04-06-2021 11:25:00 21.1 C 93 % 19.92 C
715 04-06-2021 11:30:00 21.3 C 94 % 20.29 C
716 04-06-2021 11:35:00 21.3 C 92 % 19.95 C
717 04-06-2021 11:40:00 21.4 C 91 % 19.87 C
718 04-06-2021 11:45:00 21.7 C 90 % 19.99 C
719 04-06-2021 11:50:00 22 C 88 % 19.92 C
720 04-06-2021 11:55:00 22.4 C 87 % 20.13 C
721 04-06-2021 12:00:00 22.7 C 84 % 19.86 C
722 04-06-2021 12:05:00 22.9 C 82 % 19.66 C
723 04-06-2021 12:10:00 23.3 C 80 % 19.65 C
724 04-06-2021 12:15:00 23.6 C 78 % 19.54 C
725 04-06-2021 12:20:00 23.8 C 82 % 20.54 C
Sensor: Nr:Datum:Temp:Feuchte:Taupunkt:
Aussen-T/F 726 04-06-2021 12:25:00 23.9 C 84 % 21.03 C
727 04-06-2021 12:30:00 23.8 C 85 % 21.12 C
728 04-06-2021 12:35:00 23.7 C 86 % 21.22 C
729 04-06-2021 12:40:00 23.6 C 83 % 20.54 C
730 04-06-2021 12:45:00 23.6 C 83 % 20.54 C
731 04-06-2021 12:50:00 23.7 C 81 % 20.24 C
732 04-06-2021 12:55:00 23.9 C 84 % 21.03 C
733 04-06-2021 13:00:00 23.9 C 79 % 20.03 C
734 04-06-2021 13:05:00 23.9 C 81 % 20.44 C
735 04-06-2021 13:10:00 24 C 83 % 20.93 C
736 04-06-2021 13:15:00 23.9 C 82 % 20.64 C
737 04-06-2021 13:20:00 23.6 C 83 % 20.54 C
738 04-06-2021 13:25:00 23.4 C 85 % 20.73 C
739 04-06-2021 13:30:00 23.1 C 83 % 20.05 C
740 04-06-2021 13:35:00 22.9 C 86 % 20.43 C
741 04-06-2021 13:40:00 22.8 C 84 % 19.95 C
742 04-06-2021 13:45:00 22.8 C 83 % 19.76 C
743 04-06-2021 13:50:00 22.8 C 82 % 19.56 C
744 04-06-2021 13:55:00 23.1 C 85 % 20.44 C
745 04-06-2021 14:00:00 23.2 C 82 % 19.95 C
746 04-06-2021 14:05:00 23.4 C 83 % 20.35 C
747 04-06-2021 14:10:00 23.8 C 84 % 20.93 C
748 04-06-2021 14:15:00 24.1 C 81 % 20.63 C
749 04-06-2021 14:20:00 24.3 C 79 % 20.42 C
750 04-06-2021 14:25:00 24.5 C 76 % 19.99 C
Sensor: Nr:Datum:Temp:Feuchte:Taupunkt:
Aussen-T/F 751 04-06-2021 14:30:00 24.6 C 78 % 20.51 C
752 04-06-2021 14:35:00 24.8 C 78 % 20.7 C
753 04-06-2021 14:40:00 24.9 C 79 % 21 C
754 04-06-2021 14:45:00 24.7 C 75 % 19.97 C
755 04-06-2021 14:50:00 24.6 C 76 % 20.09 C
756 04-06-2021 14:55:00 24.6 C 80 % 20.92 C
757 04-06-2021 15:00:00 24.6 C 83 % 21.52 C
758 04-06-2021 15:05:00 24.4 C 81 % 20.93 C
759 04-06-2021 15:10:00 24.2 C 82 % 20.93 C
760 04-06-2021 15:15:00 23.8 C 83 % 20.74 C
761 04-06-2021 15:20:00 23.6 C 83 % 20.54 C
762 04-06-2021 15:25:00 23.4 C 84 % 20.54 C
763 04-06-2021 15:30:00 23.3 C 85 % 20.63 C
764 04-06-2021 15:35:00 23.2 C 85 % 20.54 C
765 04-06-2021 15:40:00 23.1 C 84 % 20.25 C
766 04-06-2021 15:45:00 23.2 C 84 % 20.34 C
767 04-06-2021 15:50:00 23.3 C 84 % 20.44 C
768 04-06-2021 15:55:00 23.4 C 84 % 20.54 C
769 04-06-2021 16:00:00 23.7 C 84 % 20.83 C
770 04-06-2021 16:05:00 24.3 C 80 % 20.63 C
771 04-06-2021 16:10:00 24.8 C 74 % 19.85 C
772 04-06-2021 16:15:00 25.2 C 69 % 19.11 C
773 04-06-2021 16:20:00 25.3 C 65 % 18.25 C
774 04-06-2021 16:25:00 25.6 C 73 % 20.4 C
775 04-06-2021 16:30:00 25.6 C 69 % 19.49 C
Sensor: Nr:Datum:Temp:Feuchte:Taupunkt:
Aussen-T/F 776 04-06-2021 16:35:00 25.6 C 75 % 20.84 C
777 04-06-2021 16:40:00 25.5 C 75 % 20.74 C
778 04-06-2021 16:45:00 25.4 C 77 % 21.07 C
779 04-06-2021 16:50:00 25.2 C 76 % 20.67 C
780 04-06-2021 16:55:00 25 C 78 % 20.89 C
781 04-06-2021 17:00:00 24.8 C 79 % 20.91 C
782 04-06-2021 17:05:00 24.6 C 76 % 20.09 C
783 04-06-2021 17:10:00 24.2 C 76 % 19.7 C
784 04-06-2021 17:15:00 23.9 C 76 % 19.41 C
785 04-06-2021 17:20:00 23.8 C 80 % 20.14 C
786 04-06-2021 17:25:00 23.6 C 80 % 19.95 C
787 04-06-2021 17:30:00 23.4 C 82 % 20.15 C
788 04-06-2021 17:35:00 23.2 C 83 % 20.15 C
789 04-06-2021 17:40:00 22.8 C 83 % 19.76 C
790 04-06-2021 17:45:00 22.6 C 82 % 19.37 C
791 04-06-2021 17:50:00 22.3 C 83 % 19.27 C
792 04-06-2021 17:55:00 22.2 C 83 % 19.17 C
793 04-06-2021 18:00:00 22.1 C 84 % 19.27 C
794 04-06-2021 18:05:00 22 C 82 % 18.78 C
795 04-06-2021 18:10:00 21.9 C 84 % 19.07 C
796 04-06-2021 18:15:00 21.8 C 83 % 18.78 C
797 04-06-2021 18:20:00 21.8 C 86 % 19.35 C
798 04-06-2021 18:25:00 21.9 C 87 % 19.64 C
799 04-06-2021 18:30:00 21.9 C 87 % 19.64 C
800 04-06-2021 18:35:00 21.9 C 88 % 19.82 C
Sensor: Nr:Datum:Temp:Feuchte:Taupunkt:
Aussen-T/F 801 04-06-2021 18:40:00 21.9 C 88 % 19.82 C
802 04-06-2021 18:45:00 21.8 C 88 % 19.72 C
803 04-06-2021 18:50:00 21.8 C 88 % 19.72 C
804 04-06-2021 18:55:00 21.7 C 88 % 19.62 C
805 04-06-2021 19:00:00 21.7 C 89 % 19.81 C
806 04-06-2021 19:05:00 21.7 C 89 % 19.81 C
807 04-06-2021 19:10:00 21.7 C 89 % 19.81 C
808 04-06-2021 19:15:00 21.7 C 89 % 19.81 C
809 04-06-2021 19:20:00 21.7 C 89 % 19.81 C
810 04-06-2021 19:25:00 21.7 C 89 % 19.81 C
811 04-06-2021 19:30:00 21.7 C 89 % 19.81 C
812 04-06-2021 19:35:00 21.7 C 89 % 19.81 C
813 04-06-2021 19:40:00 21.7 C 89 % 19.81 C
814 04-06-2021 19:45:00 21.6 C 89 % 19.71 C
815 04-06-2021 19:50:00 21.4 C 87 % 19.15 C
816 04-06-2021 19:55:00 21.2 C 87 % 18.95 C
817 04-06-2021 20:00:00 21.2 C 88 % 19.13 C
818 04-06-2021 20:05:00 21.1 C 88 % 19.03 C
819 04-06-2021 20:10:00 21 C 88 % 18.94 C
820 04-06-2021 20:15:00 20.9 C 89 % 19.02 C
821 04-06-2021 20:20:00 20.8 C 88 % 18.74 C
822 04-06-2021 20:25:00 20.6 C 85 % 17.99 C
823 04-06-2021 20:30:00 20.3 C 82 % 17.13 C
824 04-06-2021 20:35:00 20.1 C 80 % 16.54 C
825 04-06-2021 20:40:00 19.8 C 81 % 16.45 C
Sensor: Nr:Datum:Temp:Feuchte:Taupunkt:
Aussen-T/F 826 04-06-2021 20:45:00 19.6 C 83 % 16.63 C
827 04-06-2021 20:50:00 19.3 C 85 % 16.72 C
828 04-06-2021 20:55:00 19 C 87 % 16.79 C
829 04-06-2021 21:00:00 18.7 C 88 % 16.67 C
830 04-06-2021 21:05:00 18.3 C 89 % 16.46 C
831 04-06-2021 21:10:00 18.1 C 90 % 16.43 C
832 04-06-2021 21:15:00 17.9 C 90 % 16.24 C
833 04-06-2021 21:20:00 17.8 C 90 % 16.14 C
834 04-06-2021 21:25:00 17.6 C 91 % 16.11 C
835 04-06-2021 21:30:00 17.5 C 91 % 16.01 C
836 04-06-2021 21:35:00 17.4 C 92 % 16.09 C
837 04-06-2021 21:40:00 17.3 C 92 % 15.99 C
838 04-06-2021 21:45:00 17.3 C 92 % 15.99 C
839 04-06-2021 21:50:00 17.2 C 93 % 16.06 C
840 04-06-2021 21:55:00 17.2 C 93 % 16.06 C
841 04-06-2021 22:00:00 17.2 C 93 % 16.06 C
842 04-06-2021 22:05:00 17.1 C 93 % 15.96 C
843 04-06-2021 22:10:00 17.1 C 93 % 15.96 C
844 04-06-2021 22:15:00 17 C 93 % 15.86 C
845 04-06-2021 22:20:00 16.9 C 93 % 15.76 C
846 04-06-2021 22:25:00 16.9 C 94 % 15.93 C
847 04-06-2021 22:30:00 16.9 C 94 % 15.93 C
848 04-06-2021 22:35:00 16.9 C 94 % 15.93 C
849 04-06-2021 22:40:00 16.9 C 94 % 15.93 C
850 04-06-2021 22:45:00 16.9 C 94 % 15.93 C
Sensor: Nr:Datum:Temp:Feuchte:Taupunkt:
Aussen-T/F 851 04-06-2021 22:50:00 16.8 C 94 % 15.83 C
852 04-06-2021 22:55:00 16.8 C 94 % 15.83 C
853 04-06-2021 23:00:00 16.8 C 94 % 15.83 C
854 04-06-2021 23:05:00 16.8 C 95 % 15.99 C
855 04-06-2021 23:10:00 16.8 C 95 % 15.99 C
856 04-06-2021 23:15:00 16.8 C 95 % 15.99 C
857 04-06-2021 23:20:00 16.8 C 95 % 15.99 C
858 04-06-2021 23:25:00 16.8 C 95 % 15.99 C
859 04-06-2021 23:30:00 16.8 C 95 % 15.99 C
860 04-06-2021 23:35:00 16.8 C 95 % 15.99 C
861 04-06-2021 23:40:00 16.8 C 95 % 15.99 C
862 04-06-2021 23:45:00 16.8 C 95 % 15.99 C
863 04-06-2021 23:50:00 16.8 C 95 % 15.99 C
864 04-06-2021 23:55:00 16.7 C 95 % 15.9 C
865 05-06-2021 00:00:00 16.7 C 95 % 15.9 C
866 05-06-2021 00:05:00 16.7 C 95 % 15.9 C
867 05-06-2021 00:10:00 16.6 C 95 % 15.8 C
868 05-06-2021 00:15:00 16.6 C 95 % 15.8 C
869 05-06-2021 00:20:00 16.6 C 95 % 15.8 C
870 05-06-2021 00:25:00 16.5 C 95 % 15.7 C
871 05-06-2021 00:30:00 16.4 C 95 % 15.6 C
872 05-06-2021 00:35:00 16.4 C 95 % 15.6 C
873 05-06-2021 00:40:00 16.4 C 95 % 15.6 C
874 05-06-2021 00:45:00 16.3 C 95 % 15.5 C
875 05-06-2021 00:50:00 16.3 C 95 % 15.5 C
Sensor: Nr:Datum:Temp:Feuchte:Taupunkt:
Aussen-T/F 876 05-06-2021 00:55:00 16.3 C 95 % 15.5 C
877 05-06-2021 01:00:00 16.3 C 95 % 15.5 C
878 05-06-2021 01:05:00 16.2 C 95 % 15.4 C
879 05-06-2021 01:10:00 16.2 C 95 % 15.4 C
880 05-06-2021 01:15:00 16.1 C 95 % 15.3 C
881 05-06-2021 01:20:00 16.1 C 95 % 15.3 C
882 05-06-2021 01:25:00 16.1 C 95 % 15.3 C
883 05-06-2021 01:30:00 16 C 95 % 15.2 C
884 05-06-2021 01:35:00 16 C 95 % 15.2 C
885 05-06-2021 01:40:00 15.9 C 95 % 15.1 C
886 05-06-2021 01:45:00 15.9 C 95 % 15.1 C
887 05-06-2021 01:50:00 15.8 C 96 % 15.16 C
888 05-06-2021 01:55:00 15.8 C 95 % 15 C
889 05-06-2021 02:00:00 15.7 C 95 % 14.9 C
890 05-06-2021 02:05:00 15.7 C 95 % 14.9 C
891 05-06-2021 02:10:00 15.6 C 95 % 14.8 C
892 05-06-2021 02:15:00 15.7 C 96 % 15.06 C
893 05-06-2021 02:20:00 15.7 C 96 % 15.06 C
894 05-06-2021 02:25:00 15.7 C 96 % 15.06 C
895 05-06-2021 02:30:00 15.8 C 96 % 15.16 C
896 05-06-2021 02:35:00 15.9 C 96 % 15.26 C
897 05-06-2021 02:40:00 16 C 97 % 15.52 C
898 05-06-2021 02:45:00 16.1 C 96 % 15.46 C
899 05-06-2021 02:50:00 16.1 C 96 % 15.46 C
900 05-06-2021 02:55:00 16.2 C 96 % 15.56 C
Sensor: Nr:Datum:Temp:Feuchte:Taupunkt:
Aussen-T/F 901 05-06-2021 03:00:00 16.2 C 96 % 15.56 C
902 05-06-2021 03:05:00 16.2 C 96 % 15.56 C
903 05-06-2021 03:10:00 16.1 C 96 % 15.46 C
904 05-06-2021 03:15:00 16.1 C 96 % 15.46 C
905 05-06-2021 03:20:00 16 C 96 % 15.36 C
906 05-06-2021 03:25:00 15.9 C 96 % 15.26 C
907 05-06-2021 03:30:00 15.8 C 96 % 15.16 C
908 05-06-2021 03:35:00 15.7 C 96 % 15.06 C
909 05-06-2021 03:40:00 15.6 C 96 % 14.96 C
910 05-06-2021 03:45:00 15.5 C 96 % 14.86 C
911 05-06-2021 03:50:00 15.4 C 96 % 14.77 C
912 05-06-2021 03:55:00 15.3 C 96 % 14.67 C
913 05-06-2021 04:00:00 15.3 C 96 % 14.67 C
914 05-06-2021 04:05:00 15.3 C 96 % 14.67 C
915 05-06-2021 04:10:00 15.2 C 96 % 14.57 C
916 05-06-2021 04:15:00 15.2 C 96 % 14.57 C
917 05-06-2021 04:20:00 15.2 C 96 % 14.57 C
918 05-06-2021 04:25:00 15.2 C 96 % 14.57 C
919 05-06-2021 04:30:00 15.2 C 96 % 14.57 C
920 05-06-2021 04:35:00 15.2 C 96 % 14.57 C
921 05-06-2021 04:40:00 15.2 C 96 % 14.57 C
922 05-06-2021 04:45:00 15.2 C 96 % 14.57 C
923 05-06-2021 04:50:00 15.2 C 97 % 14.73 C
924 05-06-2021 04:55:00 15.3 C 97 % 14.83 C
925 05-06-2021 05:00:00 15.2 C 97 % 14.73 C
Sensor: Nr:Datum:Temp:Feuchte:Taupunkt:
Aussen-T/F 926 05-06-2021 05:05:00 15.3 C 97 % 14.83 C
927 05-06-2021 05:10:00 15.3 C 97 % 14.83 C
928 05-06-2021 05:15:00 15.3 C 97 % 14.83 C
929 05-06-2021 05:20:00 15.3 C 97 % 14.83 C
930 05-06-2021 05:25:00 15.3 C 97 % 14.83 C
931 05-06-2021 05:30:00 15.3 C 97 % 14.83 C
932 05-06-2021 05:35:00 15.3 C 97 % 14.83 C
933 05-06-2021 05:40:00 15.3 C 97 % 14.83 C
934 05-06-2021 05:45:00 15.3 C 97 % 14.83 C
935 05-06-2021 05:50:00 15.3 C 97 % 14.83 C
936 05-06-2021 05:55:00 15.4 C 97 % 14.93 C
937 05-06-2021 06:00:00 15.4 C 97 % 14.93 C
938 05-06-2021 06:05:00 15.5 C 97 % 15.03 C
939 05-06-2021 06:10:00 15.6 C 97 % 15.13 C
940 05-06-2021 06:15:00 15.7 C 97 % 15.23 C
941 05-06-2021 06:20:00 15.7 C 97 % 15.23 C
942 05-06-2021 06:25:00 15.7 C 97 % 15.23 C
943 05-06-2021 06:30:00 15.7 C 97 % 15.23 C
944 05-06-2021 06:35:00 15.7 C 97 % 15.23 C
945 05-06-2021 06:40:00 15.8 C 97 % 15.32 C
946 05-06-2021 06:45:00 15.8 C 97 % 15.32 C
947 05-06-2021 06:50:00 15.8 C 97 % 15.32 C
948 05-06-2021 06:55:00 15.8 C 97 % 15.32 C
949 05-06-2021 07:00:00 15.9 C 97 % 15.42 C
950 05-06-2021 07:05:00 15.9 C 97 % 15.42 C
Sensor: Nr:Datum:Temp:Feuchte:Taupunkt:
Aussen-T/F 951 05-06-2021 07:10:00 15.9 C 97 % 15.42 C
952 05-06-2021 07:15:00 15.9 C 97 % 15.42 C
953 05-06-2021 07:20:00 16 C 97 % 15.52 C
954 05-06-2021 07:25:00 15.9 C 97 % 15.42 C
955 05-06-2021 07:30:00 15.9 C 97 % 15.42 C
956 05-06-2021 07:35:00 15.9 C 97 % 15.42 C
957 05-06-2021 07:40:00 16 C 97 % 15.52 C
958 05-06-2021 07:45:00 16 C 97 % 15.52 C
959 05-06-2021 07:50:00 15.9 C 97 % 15.42 C
960 05-06-2021 07:55:00 15.9 C 97 % 15.42 C
961 05-06-2021 08:00:00 15.9 C 97 % 15.42 C
962 05-06-2021 08:05:00 15.8 C 97 % 15.32 C
963 05-06-2021 08:10:00 15.8 C 97 % 15.32 C
964 05-06-2021 08:15:00 15.9 C 97 % 15.42 C
965 05-06-2021 08:20:00 15.9 C 97 % 15.42 C
966 05-06-2021 08:25:00 15.9 C 97 % 15.42 C
967 05-06-2021 08:30:00 16 C 97 % 15.52 C
968 05-06-2021 08:35:00 16.1 C 97 % 15.62 C
969 05-06-2021 08:40:00 16.1 C 97 % 15.62 C
970 05-06-2021 08:45:00 16.1 C 97 % 15.62 C
971 05-06-2021 08:50:00 16.2 C 97 % 15.72 C
972 05-06-2021 08:55:00 16.3 C 97 % 15.82 C
973 05-06-2021 09:00:00 16.3 C 97 % 15.82 C
974 05-06-2021 09:05:00 16.3 C 97 % 15.82 C
975 05-06-2021 09:10:00 16.3 C 97 % 15.82 C
Sensor: Nr:Datum:Temp:Feuchte:Taupunkt:
Aussen-T/F 976 05-06-2021 09:15:00 16.4 C 97 % 15.92 C
977 05-06-2021 09:20:00 16.6 C 97 % 16.12 C
978 05-06-2021 09:25:00 16.7 C 97 % 16.22 C
979 05-06-2021 09:30:00 16.8 C 97 % 16.32 C
980 05-06-2021 09:35:00 16.9 C 97 % 16.42 C
981 05-06-2021 09:40:00 17.1 C 97 % 16.62 C
982 05-06-2021 09:45:00 17.1 C 97 % 16.62 C
983 05-06-2021 09:50:00 17.3 C 97 % 16.82 C
984 05-06-2021 09:55:00 17.3 C 97 % 16.82 C
985 05-06-2021 10:00:00 17.2 C 96 % 16.56 C
986 05-06-2021 10:05:00 17.2 C 95 % 16.39 C
987 05-06-2021 10:10:00 17.3 C 95 % 16.49 C
988 05-06-2021 10:15:00 17.4 C 95 % 16.59 C
989 05-06-2021 10:20:00 17.4 C 94 % 16.42 C
990 05-06-2021 10:25:00 17.4 C 94 % 16.42 C
991 05-06-2021 10:30:00 17.6 C 94 % 16.62 C
992 05-06-2021 10:35:00 17.7 C 94 % 16.72 C
993 05-06-2021 10:40:00 17.8 C 94 % 16.82 C
994 05-06-2021 10:45:00 17.9 C 94 % 16.92 C
995 05-06-2021 10:50:00 18.1 C 93 % 16.95 C
996 05-06-2021 10:55:00 18.1 C 93 % 16.95 C
997 05-06-2021 11:00:00 18.2 C 93 % 17.05 C
998 05-06-2021 11:05:00 18.2 C 93 % 17.05 C
999 05-06-2021 11:10:00 18.4 C 93 % 17.25 C
1000 05-06-2021 11:15:00 18.7 C 93 % 17.54 C
Sensor: Nr:Datum:Temp:Feuchte:Taupunkt:
Aussen-T/F 1001 05-06-2021 11:20:00 18.8 C 93 % 17.64 C
1002 05-06-2021 11:25:00 18.8 C 91 % 17.3 C
1003 05-06-2021 11:30:00 18.8 C 92 % 17.47 C
1004 05-06-2021 11:35:00 18.9 C 91 % 17.4 C
1005 05-06-2021 11:40:00 18.8 C 91 % 17.3 C
1006 05-06-2021 11:45:00 18.9 C 91 % 17.4 C
1007 05-06-2021 11:50:00 18.9 C 89 % 17.05 C
1008 05-06-2021 11:55:00 18.9 C 89 % 17.05 C
1009 05-06-2021 12:00:00 18.9 C 89 % 17.05 C
1010 05-06-2021 12:05:00 19 C 88 % 16.97 C
1011 05-06-2021 12:10:00 19 C 87 % 16.79 C
1012 05-06-2021 12:15:00 19.1 C 87 % 16.89 C
1013 05-06-2021 12:20:00 19.1 C 88 % 17.07 C
1014 05-06-2021 12:25:00 19.2 C 88 % 17.16 C
1015 05-06-2021 12:30:00 19.3 C 87 % 17.08 C
1016 05-06-2021 12:35:00 19.4 C 87 % 17.18 C
1017 05-06-2021 12:40:00 19.5 C 87 % 17.28 C
1018 05-06-2021 12:45:00 19.7 C 87 % 17.47 C
1019 05-06-2021 12:50:00 19.6 C 86 % 17.19 C
1020 05-06-2021 12:55:00 19.6 C 87 % 17.38 C
1021 05-06-2021 13:00:00 19.6 C 86 % 17.19 C
1022 05-06-2021 13:05:00 19.4 C 84 % 16.63 C
1023 05-06-2021 13:10:00 19.4 C 86 % 17 C
1024 05-06-2021 13:15:00 19.5 C 86 % 17.1 C
1025 05-06-2021 13:20:00 19.6 C 87 % 17.38 C
Sensor: Nr:Datum:Temp:Feuchte:Taupunkt:
Aussen-T/F 1026 05-06-2021 13:25:00 19.7 C 85 % 17.11 C
1027 05-06-2021 13:30:00 19.6 C 84 % 16.82 C
1028 05-06-2021 13:35:00 19.7 C 86 % 17.29 C
1029 05-06-2021 13:40:00 19.9 C 84 % 17.12 C
1030 05-06-2021 13:45:00 20.1 C 83 % 17.12 C
1031 05-06-2021 13:50:00 20.2 C 82 % 17.03 C
1032 05-06-2021 13:55:00 20.3 C 83 % 17.32 C
1033 05-06-2021 14:00:00 20.5 C 82 % 17.32 C
1034 05-06-2021 14:05:00 20.7 C 81 % 17.32 C
1035 05-06-2021 14:10:00 20.7 C 80 % 17.13 C
1036 05-06-2021 14:15:00 20.8 C 80 % 17.22 C
1037 05-06-2021 14:20:00 20.9 C 81 % 17.52 C
1038 05-06-2021 14:25:00 20.9 C 79 % 17.12 C
1039 05-06-2021 14:30:00 20.9 C 80 % 17.32 C
1040 05-06-2021 14:35:00 20.9 C 80 % 17.32 C
1041 05-06-2021 14:40:00 21.1 C 81 % 17.71 C
1042 05-06-2021 14:45:00 21.2 C 80 % 17.61 C
1043 05-06-2021 14:50:00 21.3 C 80 % 17.71 C
1044 05-06-2021 14:55:00 21.6 C 79 % 17.8 C
1045 05-06-2021 15:00:00 21.8 C 77 % 17.59 C
1046 05-06-2021 15:05:00 22 C 78 % 17.99 C
1047 05-06-2021 15:10:00 22.2 C 78 % 18.18 C
1048 05-06-2021 15:15:00 22.2 C 77 % 17.98 C
1049 05-06-2021 15:20:00 22.3 C 77 % 18.07 C
1050 05-06-2021 15:25:00 22.3 C 77 % 18.07 C
Sensor: Nr:Datum:Temp:Feuchte:Taupunkt:
Aussen-T/F 1051 05-06-2021 15:30:00 22.4 C 76 % 17.96 C
1052 05-06-2021 15:35:00 22.5 C 75 % 17.85 C
1053 05-06-2021 15:40:00 22.4 C 76 % 17.96 C
1054 05-06-2021 15:45:00 22.4 C 78 % 18.37 C
1055 05-06-2021 15:50:00 22.4 C 76 % 17.96 C
1056 05-06-2021 15:55:00 22.5 C 79 % 18.67 C
1057 05-06-2021 16:00:00 22.4 C 76 % 17.96 C
1058 05-06-2021 16:05:00 22.4 C 78 % 18.37 C
1059 05-06-2021 16:10:00 22.4 C 76 % 17.96 C
1060 05-06-2021 16:15:00 22.6 C 75 % 17.94 C
1061 05-06-2021 16:20:00 22.6 C 73 % 17.51 C
1062 05-06-2021 16:25:00 22.7 C 74 % 17.83 C
1063 05-06-2021 16:30:00 22.7 C 77 % 18.46 C
1064 05-06-2021 16:35:00 22.7 C 79 % 18.87 C
1065 05-06-2021 16:40:00 22.4 C 78 % 18.37 C
1066 05-06-2021 16:45:00 22.3 C 76 % 17.86 C
1067 05-06-2021 16:50:00 22.1 C 77 % 17.88 C
1068 05-06-2021 16:55:00 21.9 C 76 % 17.48 C
1069 05-06-2021 17:00:00 21.8 C 77 % 17.59 C
1070 05-06-2021 17:05:00 21.6 C 79 % 17.8 C
1071 05-06-2021 17:10:00 21.4 C 80 % 17.81 C
1072 05-06-2021 17:15:00 21.2 C 80 % 17.61 C
1073 05-06-2021 17:20:00 20.9 C 82 % 17.71 C
1074 05-06-2021 17:25:00 20.7 C 84 % 17.9 C
1075 05-06-2021 17:30:00 20.4 C 85 % 17.79 C
Sensor: Nr:Datum:Temp:Feuchte:Taupunkt:
Aussen-T/F 1076 05-06-2021 17:35:00 20.1 C 87 % 17.87 C
1077 05-06-2021 17:40:00 19.9 C 88 % 17.85 C
1078 05-06-2021 17:45:00 19.8 C 89 % 17.93 C
1079 05-06-2021 17:50:00 19.7 C 90 % 18.01 C
1080 05-06-2021 17:55:00 19.6 C 90 % 17.91 C
1081 05-06-2021 18:00:00 19.4 C 90 % 17.72 C
1082 05-06-2021 18:05:00 19.3 C 91 % 17.79 C
1083 05-06-2021 18:10:00 19.1 C 90 % 17.42 C
1084 05-06-2021 18:15:00 19 C 91 % 17.5 C
1085 05-06-2021 18:20:00 18.8 C 90 % 17.12 C
1086 05-06-2021 18:25:00 18.8 C 91 % 17.3 C
1087 05-06-2021 18:30:00 18.7 C 91 % 17.2 C
1088 05-06-2021 18:35:00 18.6 C 91 % 17.1 C
1089 05-06-2021 18:40:00 18.4 C 90 % 16.73 C
1090 05-06-2021 18:45:00 18.3 C 90 % 16.63 C
1091 05-06-2021 18:50:00 18.3 C 91 % 16.81 C
1092 05-06-2021 18:55:00 18.2 C 91 % 16.71 C
1093 05-06-2021 19:00:00 18.2 C 91 % 16.71 C
1094 05-06-2021 19:05:00 18.1 C 91 % 16.61 C
1095 05-06-2021 19:10:00 18.1 C 91 % 16.61 C
1096 05-06-2021 19:15:00 18 C 90 % 16.34 C
1097 05-06-2021 19:20:00 17.9 C 91 % 16.41 C
1098 05-06-2021 19:25:00 17.8 C 91 % 16.31 C
1099 05-06-2021 19:30:00 17.8 C 91 % 16.31 C
1100 05-06-2021 19:35:00 17.7 C 91 % 16.21 C
Sensor: Nr:Datum:Temp:Feuchte:Taupunkt:
Aussen-T/F 1101 05-06-2021 19:40:00 17.6 C 91 % 16.11 C
1102 05-06-2021 19:45:00 17.5 C 91 % 16.01 C
1103 05-06-2021 19:50:00 17.4 C 91 % 15.92 C
1104 05-06-2021 19:55:00 17.4 C 91 % 15.92 C
1105 05-06-2021 20:00:00 17.3 C 91 % 15.82 C
1106 05-06-2021 20:05:00 17.2 C 91 % 15.72 C
1107 05-06-2021 20:10:00 17.2 C 92 % 15.89 C
1108 05-06-2021 20:15:00 17.1 C 92 % 15.79 C
1109 05-06-2021 20:20:00 17.1 C 92 % 15.79 C
1110 05-06-2021 20:25:00 16.9 C 92 % 15.59 C
1111 05-06-2021 20:30:00 16.9 C 92 % 15.59 C
1112 05-06-2021 20:35:00 16.8 C 92 % 15.49 C
1113 05-06-2021 20:40:00 16.7 C 92 % 15.39 C
1114 05-06-2021 20:45:00 16.7 C 92 % 15.39 C
1115 05-06-2021 20:50:00 16.7 C 93 % 15.56 C
1116 05-06-2021 20:55:00 16.7 C 93 % 15.56 C
1117 05-06-2021 21:00:00 16.6 C 93 % 15.46 C
1118 05-06-2021 21:05:00 16.6 C 93 % 15.46 C
1119 05-06-2021 21:10:00 16.5 C 93 % 15.36 C
1120 05-06-2021 21:15:00 16.5 C 93 % 15.36 C
1121 05-06-2021 21:20:00 16.4 C 93 % 15.27 C
1122 05-06-2021 21:25:00 16.4 C 93 % 15.27 C
1123 05-06-2021 21:30:00 16.4 C 93 % 15.27 C
1124 05-06-2021 21:35:00 16.4 C 93 % 15.27 C
1125 05-06-2021 21:40:00 16.4 C 93 % 15.27 C
Sensor: Nr:Datum:Temp:Feuchte:Taupunkt:
Aussen-T/F 1126 05-06-2021 21:45:00 16.4 C 93 % 15.27 C
1127 05-06-2021 21:50:00 16.4 C 93 % 15.27 C
1128 05-06-2021 21:55:00 16.3 C 93 % 15.17 C
1129 05-06-2021 22:00:00 16.3 C 93 % 15.17 C
1130 05-06-2021 22:05:00 16.3 C 93 % 15.17 C
1131 05-06-2021 22:10:00 16.3 C 93 % 15.17 C
1132 05-06-2021 22:15:00 16.3 C 93 % 15.17 C
1133 05-06-2021 22:20:00 16.3 C 94 % 15.33 C
1134 05-06-2021 22:25:00 16.3 C 94 % 15.33 C
1135 05-06-2021 22:30:00 16.3 C 94 % 15.33 C
1136 05-06-2021 22:35:00 16.3 C 94 % 15.33 C
1137 05-06-2021 22:40:00 16.3 C 94 % 15.33 C
1138 05-06-2021 22:45:00 16.3 C 94 % 15.33 C
1139 05-06-2021 22:50:00 16.2 C 94 % 15.23 C
1140 05-06-2021 22:55:00 16.2 C 94 % 15.23 C
1141 05-06-2021 23:00:00 16.2 C 94 % 15.23 C
1142 05-06-2021 23:05:00 16.2 C 94 % 15.23 C
1143 05-06-2021 23:10:00 16.2 C 94 % 15.23 C
1144 05-06-2021 23:15:00 16.2 C 94 % 15.23 C
1145 05-06-2021 23:20:00 16.1 C 94 % 15.13 C
1146 05-06-2021 23:25:00 16.1 C 94 % 15.13 C
1147 05-06-2021 23:30:00 16.1 C 94 % 15.13 C
1148 05-06-2021 23:35:00 16.1 C 94 % 15.13 C
1149 05-06-2021 23:40:00 16.1 C 94 % 15.13 C
1150 05-06-2021 23:45:00 16.1 C 94 % 15.13 C
Sensor: Nr:Datum:Temp:Feuchte:Taupunkt:
Aussen-T/F 1151 05-06-2021 23:50:00 16.1 C 94 % 15.13 C
1152 05-06-2021 23:55:00 16.1 C 94 % 15.13 C
1153 06-06-2021 00:00:00 16 C 94 % 15.03 C
1154 06-06-2021 00:05:00 16 C 94 % 15.03 C
1155 06-06-2021 00:10:00 16 C 94 % 15.03 C
1156 06-06-2021 00:15:00 16 C 94 % 15.03 C
1157 06-06-2021 00:20:00 16 C 94 % 15.03 C
1158 06-06-2021 00:25:00 16 C 94 % 15.03 C
1159 06-06-2021 00:30:00 16 C 94 % 15.03 C
1160 06-06-2021 00:35:00 15.9 C 94 % 14.94 C
1161 06-06-2021 00:40:00 16 C 94 % 15.03 C
1162 06-06-2021 00:45:00 16 C 94 % 15.03 C
1163 06-06-2021 00:50:00 15.9 C 94 % 14.94 C
1164 06-06-2021 00:55:00 15.9 C 93 % 14.77 C
1165 06-06-2021 01:00:00 15.9 C 93 % 14.77 C
1166 06-06-2021 01:05:00 15.9 C 93 % 14.77 C
1167 06-06-2021 01:10:00 15.9 C 94 % 14.94 C
1168 06-06-2021 01:15:00 15.9 C 94 % 14.94 C
1169 06-06-2021 01:20:00 15.9 C 94 % 14.94 C
1170 06-06-2021 01:25:00 15.9 C 93 % 14.77 C
1171 06-06-2021 01:30:00 15.9 C 93 % 14.77 C
1172 06-06-2021 01:35:00 15.9 C 93 % 14.77 C
1173 06-06-2021 01:40:00 15.8 C 93 % 14.67 C
1174 06-06-2021 01:45:00 15.8 C 93 % 14.67 C
1175 06-06-2021 01:50:00 15.8 C 93 % 14.67 C
Sensor: Nr:Datum:Temp:Feuchte:Taupunkt:
Aussen-T/F 1176 06-06-2021 01:55:00 15.8 C 92 % 14.5 C
1177 06-06-2021 02:00:00 15.8 C 92 % 14.5 C
1178 06-06-2021 02:05:00 15.8 C 92 % 14.5 C
1179 06-06-2021 02:10:00 15.8 C 92 % 14.5 C
1180 06-06-2021 02:15:00 15.8 C 92 % 14.5 C
1181 06-06-2021 02:20:00 15.8 C 92 % 14.5 C
1182 06-06-2021 02:25:00 15.8 C 91 % 14.33 C
1183 06-06-2021 02:30:00 15.8 C 91 % 14.33 C
1184 06-06-2021 02:35:00 15.8 C 91 % 14.33 C
1185 06-06-2021 02:40:00 15.8 C 91 % 14.33 C
1186 06-06-2021 02:45:00 15.8 C 91 % 14.33 C
1187 06-06-2021 02:50:00 15.7 C 91 % 14.24 C
1188 06-06-2021 02:55:00 15.7 C 91 % 14.24 C
1189 06-06-2021 03:00:00 15.7 C 91 % 14.24 C
1190 06-06-2021 03:05:00 15.7 C 91 % 14.24 C
1191 06-06-2021 03:10:00 15.6 C 91 % 14.14 C
1192 06-06-2021 03:15:00 15.6 C 91 % 14.14 C
1193 06-06-2021 03:20:00 15.6 C 91 % 14.14 C
1194 06-06-2021 03:25:00 15.5 C 91 % 14.04 C
1195 06-06-2021 03:30:00 15.4 C 91 % 13.94 C
1196 06-06-2021 03:35:00 15.4 C 91 % 13.94 C
1197 06-06-2021 03:40:00 15.4 C 91 % 13.94 C
1198 06-06-2021 03:45:00 15.4 C 91 % 13.94 C
1199 06-06-2021 03:50:00 15.3 C 91 % 13.84 C
1200 06-06-2021 03:55:00 15.3 C 91 % 13.84 C
Sensor: Nr:Datum:Temp:Feuchte:Taupunkt:
Aussen-T/F 1201 06-06-2021 04:00:00 15.3 C 91 % 13.84 C
1202 06-06-2021 04:05:00 15.3 C 91 % 13.84 C
1203 06-06-2021 04:10:00 15.3 C 91 % 13.84 C
1204 06-06-2021 04:15:00 15.3 C 91 % 13.84 C
1205 06-06-2021 04:20:00 15.3 C 91 % 13.84 C
1206 06-06-2021 04:25:00 15.2 C 91 % 13.74 C
1207 06-06-2021 04:30:00 15.2 C 91 % 13.74 C
1208 06-06-2021 04:35:00 15.2 C 91 % 13.74 C
1209 06-06-2021 04:40:00 15.2 C 91 % 13.74 C
1210 06-06-2021 04:45:00 15.2 C 91 % 13.74 C
1211 06-06-2021 04:50:00 15.2 C 92 % 13.91 C
1212 06-06-2021 04:55:00 15.1 C 92 % 13.81 C
1213 06-06-2021 05:00:00 15.1 C 92 % 13.81 C
1214 06-06-2021 05:05:00 15 C 92 % 13.71 C
1215 06-06-2021 05:10:00 15 C 92 % 13.71 C
1216 06-06-2021 05:15:00 14.9 C 92 % 13.61 C
1217 06-06-2021 05:20:00 14.9 C 92 % 13.61 C
1218 06-06-2021 05:25:00 14.9 C 92 % 13.61 C
1219 06-06-2021 05:30:00 14.9 C 92 % 13.61 C
1220 06-06-2021 05:35:00 14.8 C 92 % 13.51 C
1221 06-06-2021 05:40:00 14.8 C 93 % 13.68 C
1222 06-06-2021 05:45:00 14.7 C 93 % 13.58 C
1223 06-06-2021 05:50:00 14.7 C 93 % 13.58 C
1224 06-06-2021 05:55:00 14.7 C 93 % 13.58 C
1225 06-06-2021 06:00:00 14.6 C 93 % 13.48 C
Sensor: Nr:Datum:Temp:Feuchte:Taupunkt:
Aussen-T/F 1226 06-06-2021 06:05:00 14.6 C 93 % 13.48 C
1227 06-06-2021 06:10:00 14.6 C 93 % 13.48 C
1228 06-06-2021 06:15:00 14.5 C 93 % 13.38 C
1229 06-06-2021 06:20:00 14.5 C 93 % 13.38 C
1230 06-06-2021 06:25:00 14.5 C 93 % 13.38 C
1231 06-06-2021 06:30:00 14.5 C 93 % 13.38 C
1232 06-06-2021 06:35:00 14.4 C 93 % 13.28 C
1233 06-06-2021 06:40:00 14.4 C 94 % 13.45 C
1234 06-06-2021 06:45:00 14.4 C 94 % 13.45 C
1235 06-06-2021 06:50:00 14.4 C 94 % 13.45 C
1236 06-06-2021 06:55:00 14.3 C 93 % 13.18 C
1237 06-06-2021 07:00:00 14.3 C 93 % 13.18 C
1238 06-06-2021 07:05:00 14.3 C 93 % 13.18 C
1239 06-06-2021 07:10:00 14.3 C 93 % 13.18 C
1240 06-06-2021 07:15:00 14.3 C 93 % 13.18 C
1241 06-06-2021 07:20:00 14.3 C 93 % 13.18 C
1242 06-06-2021 07:25:00 14.3 C 93 % 13.18 C
1243 06-06-2021 07:30:00 14.3 C 94 % 13.35 C
1244 06-06-2021 07:35:00 14.2 C 93 % 13.08 C
1245 06-06-2021 07:40:00 14.2 C 93 % 13.08 C
1246 06-06-2021 07:45:00 14.3 C 93 % 13.18 C
1247 06-06-2021 07:50:00 14.3 C 94 % 13.35 C
1248 06-06-2021 07:55:00 14.3 C 93 % 13.18 C
1249 06-06-2021 08:00:00 14.2 C 93 % 13.08 C
1250 06-06-2021 08:05:00 14.3 C 93 % 13.18 C
Sensor: Nr:Datum:Temp:Feuchte:Taupunkt:
Aussen-T/F 1251 06-06-2021 08:10:00 14.3 C 93 % 13.18 C
1252 06-06-2021 08:15:00 14.3 C 93 % 13.18 C
1253 06-06-2021 08:20:00 14.3 C 93 % 13.18 C
1254 06-06-2021 08:25:00 14.3 C 93 % 13.18 C
1255 06-06-2021 08:30:00 14.3 C 93 % 13.18 C
1256 06-06-2021 08:35:00 14.2 C 93 % 13.08 C
1257 06-06-2021 08:40:00 14.3 C 93 % 13.18 C
1258 06-06-2021 08:45:00 14.2 C 93 % 13.08 C
1259 06-06-2021 08:50:00 14.2 C 93 % 13.08 C
1260 06-06-2021 08:55:00 14.3 C 93 % 13.18 C
1261 06-06-2021 09:00:00 14.2 C 93 % 13.08 C
1262 06-06-2021 09:05:00 14.3 C 93 % 13.18 C
1263 06-06-2021 09:10:00 14.3 C 93 % 13.18 C
1264 06-06-2021 09:15:00 14.3 C 93 % 13.18 C
1265 06-06-2021 09:20:00 14.3 C 93 % 13.18 C
1266 06-06-2021 09:25:00 14.3 C 93 % 13.18 C
1267 06-06-2021 09:30:00 14.4 C 93 % 13.28 C
1268 06-06-2021 09:35:00 14.4 C 93 % 13.28 C
1269 06-06-2021 09:40:00 14.4 C 93 % 13.28 C
1270 06-06-2021 09:45:00 14.4 C 93 % 13.28 C
1271 06-06-2021 09:50:00 14.5 C 93 % 13.38 C
1272 06-06-2021 09:55:00 14.6 C 93 % 13.48 C
1273 06-06-2021 10:00:00 14.6 C 93 % 13.48 C
1274 06-06-2021 10:05:00 14.6 C 93 % 13.48 C
1275 06-06-2021 10:10:00 14.7 C 93 % 13.58 C
Sensor: Nr:Datum:Temp:Feuchte:Taupunkt:
Aussen-T/F 1276 06-06-2021 10:15:00 14.7 C 93 % 13.58 C
1277 06-06-2021 10:20:00 14.7 C 93 % 13.58 C
1278 06-06-2021 10:25:00 14.7 C 93 % 13.58 C
1279 06-06-2021 10:30:00 14.7 C 92 % 13.41 C
1280 06-06-2021 10:35:00 14.7 C 92 % 13.41 C
1281 06-06-2021 10:40:00 14.7 C 92 % 13.41 C
1282 06-06-2021 10:45:00 14.7 C 93 % 13.58 C
1283 06-06-2021 10:50:00 14.7 C 92 % 13.41 C
1284 06-06-2021 10:55:00 14.8 C 92 % 13.51 C
1285 06-06-2021 11:00:00 14.8 C 93 % 13.68 C
1286 06-06-2021 11:05:00 14.8 C 92 % 13.51 C
1287 06-06-2021 11:10:00 14.8 C 92 % 13.51 C
1288 06-06-2021 11:15:00 14.8 C 92 % 13.51 C
1289 06-06-2021 11:20:00 14.8 C 92 % 13.51 C
1290 06-06-2021 11:25:00 14.9 C 92 % 13.61 C
1291 06-06-2021 11:30:00 14.9 C 92 % 13.61 C
1292 06-06-2021 11:35:00 14.9 C 92 % 13.61 C
1293 06-06-2021 11:40:00 14.9 C 92 % 13.61 C
1294 06-06-2021 11:45:00 14.9 C 92 % 13.61 C
1295 06-06-2021 11:50:00 15 C 92 % 13.71 C
1296 06-06-2021 11:55:00 15 C 92 % 13.71 C
1297 06-06-2021 12:00:00 15.1 C 92 % 13.81 C
1298 06-06-2021 12:05:00 15.1 C 92 % 13.81 C
1299 06-06-2021 12:10:00 15.1 C 92 % 13.81 C
1300 06-06-2021 12:15:00 15.1 C 92 % 13.81 C
Sensor: Nr:Datum:Temp:Feuchte:Taupunkt:
Aussen-T/F 1301 06-06-2021 12:20:00 15.1 C 92 % 13.81 C
1302 06-06-2021 12:25:00 15.2 C 92 % 13.91 C
1303 06-06-2021 12:30:00 15.2 C 92 % 13.91 C
1304 06-06-2021 12:35:00 15.2 C 92 % 13.91 C
1305 06-06-2021 12:40:00 15.2 C 92 % 13.91 C
1306 06-06-2021 12:45:00 15.2 C 92 % 13.91 C
1307 06-06-2021 12:50:00 15.3 C 92 % 14.01 C
1308 06-06-2021 12:55:00 15.3 C 92 % 14.01 C
1309 06-06-2021 13:00:00 15.3 C 92 % 14.01 C
1310 06-06-2021 13:05:00 15.3 C 92 % 14.01 C
1311 06-06-2021 13:10:00 15.4 C 92 % 14.11 C
1312 06-06-2021 13:15:00 15.4 C 92 % 14.11 C
1313 06-06-2021 13:20:00 15.5 C 91 % 14.04 C
1314 06-06-2021 13:25:00 15.6 C 92 % 14.31 C
1315 06-06-2021 13:30:00 15.7 C 92 % 14.4 C
1316 06-06-2021 13:35:00 15.6 C 91 % 14.14 C
1317 06-06-2021 13:40:00 15.6 C 91 % 14.14 C
1318 06-06-2021 13:45:00 15.7 C 91 % 14.24 C
1319 06-06-2021 13:50:00 15.7 C 91 % 14.24 C
1320 06-06-2021 13:55:00 15.7 C 91 % 14.24 C
1321 06-06-2021 14:00:00 15.7 C 91 % 14.24 C
1322 06-06-2021 14:05:00 15.7 C 91 % 14.24 C
1323 06-06-2021 14:10:00 15.7 C 91 % 14.24 C
1324 06-06-2021 14:15:00 15.7 C 91 % 14.24 C
1325 06-06-2021 14:20:00 15.7 C 91 % 14.24 C
Sensor: Nr:Datum:Temp:Feuchte:Taupunkt:
Aussen-T/F 1326 06-06-2021 14:25:00 15.7 C 91 % 14.24 C
1327 06-06-2021 14:30:00 15.7 C 92 % 14.4 C
1328 06-06-2021 14:35:00 15.7 C 91 % 14.24 C
1329 06-06-2021 14:40:00 15.7 C 91 % 14.24 C
1330 06-06-2021 14:45:00 15.7 C 91 % 14.24 C
1331 06-06-2021 14:50:00 15.7 C 91 % 14.24 C
1332 06-06-2021 14:55:00 15.8 C 91 % 14.33 C
1333 06-06-2021 15:00:00 15.8 C 91 % 14.33 C
1334 06-06-2021 15:05:00 15.8 C 91 % 14.33 C
1335 06-06-2021 15:10:00 15.8 C 91 % 14.33 C
1336 06-06-2021 15:15:00 15.9 C 91 % 14.43 C
1337 06-06-2021 15:20:00 15.9 C 91 % 14.43 C
1338 06-06-2021 15:25:00 15.9 C 91 % 14.43 C
1339 06-06-2021 15:30:00 16.1 C 91 % 14.63 C
1340 06-06-2021 15:35:00 16.2 C 90 % 14.56 C
1341 06-06-2021 15:40:00 16.3 C 90 % 14.66 C
1342 06-06-2021 15:45:00 16.3 C 90 % 14.66 C
1343 06-06-2021 15:50:00 16.4 C 89 % 14.58 C
1344 06-06-2021 15:55:00 16.5 C 89 % 14.68 C
1345 06-06-2021 16:00:00 16.6 C 89 % 14.78 C
1346 06-06-2021 16:05:00 16.8 C 88 % 14.8 C
1347 06-06-2021 16:10:00 16.9 C 87 % 14.72 C
1348 06-06-2021 16:15:00 17.1 C 86 % 14.74 C
1349 06-06-2021 16:20:00 17.2 C 86 % 14.84 C
1350 06-06-2021 16:25:00 17.3 C 85 % 14.76 C
Sensor: Nr:Datum:Temp:Feuchte:Taupunkt:
Aussen-T/F 1351 06-06-2021 16:30:00 17.3 C 85 % 14.76 C
1352 06-06-2021 16:35:00 17.4 C 85 % 14.85 C
1353 06-06-2021 16:40:00 17.4 C 85 % 14.85 C
1354 06-06-2021 16:45:00 17.4 C 84 % 14.67 C
1355 06-06-2021 16:50:00 17.4 C 85 % 14.85 C
1356 06-06-2021 16:55:00 17.4 C 84 % 14.67 C
1357 06-06-2021 17:00:00 17.4 C 85 % 14.85 C
1358 06-06-2021 17:05:00 17.4 C 85 % 14.85 C
1359 06-06-2021 17:10:00 17.4 C 84 % 14.67 C
1360 06-06-2021 17:15:00 17.4 C 85 % 14.85 C
1361 06-06-2021 17:20:00 17.3 C 84 % 14.57 C
1362 06-06-2021 17:25:00 17.3 C 85 % 14.76 C
1363 06-06-2021 17:30:00 17.2 C 85 % 14.66 C
1364 06-06-2021 17:35:00 17.2 C 85 % 14.66 C
1365 06-06-2021 17:40:00 17.2 C 86 % 14.84 C
1366 06-06-2021 17:45:00 17.2 C 86 % 14.84 C
1367 06-06-2021 17:50:00 17.3 C 87 % 15.12 C
1368 06-06-2021 17:55:00 17.3 C 86 % 14.94 C
1369 06-06-2021 18:00:00 17.3 C 86 % 14.94 C
1370 06-06-2021 18:05:00 17.4 C 86 % 15.03 C
1371 06-06-2021 18:10:00 17.4 C 86 % 15.03 C
1372 06-06-2021 18:15:00 17.4 C 86 % 15.03 C
1373 06-06-2021 18:20:00 17.3 C 86 % 14.94 C
1374 06-06-2021 18:25:00 17.3 C 86 % 14.94 C
1375 06-06-2021 18:30:00 17.3 C 86 % 14.94 C
Sensor: Nr:Datum:Temp:Feuchte:Taupunkt:
Aussen-T/F 1376 06-06-2021 18:35:00 17.2 C 87 % 15.02 C
1377 06-06-2021 18:40:00 17.1 C 87 % 14.92 C
1378 06-06-2021 18:45:00 17.1 C 87 % 14.92 C
1379 06-06-2021 18:50:00 17.1 C 87 % 14.92 C
1380 06-06-2021 18:55:00 17.1 C 87 % 14.92 C
1381 06-06-2021 19:00:00 17.1 C 87 % 14.92 C
1382 06-06-2021 19:05:00 17 C 86 % 14.64 C
1383 06-06-2021 19:10:00 17 C 87 % 14.82 C
1384 06-06-2021 19:15:00 16.9 C 87 % 14.72 C
1385 06-06-2021 19:20:00 16.9 C 87 % 14.72 C
1386 06-06-2021 19:25:00 16.9 C 87 % 14.72 C
1387 06-06-2021 19:30:00 16.8 C 87 % 14.62 C
1388 06-06-2021 19:35:00 16.8 C 87 % 14.62 C
1389 06-06-2021 19:40:00 16.8 C 88 % 14.8 C
1390 06-06-2021 19:45:00 16.8 C 88 % 14.8 C
1391 06-06-2021 19:50:00 16.8 C 88 % 14.8 C
1392 06-06-2021 19:55:00 16.8 C 88 % 14.8 C
1393 06-06-2021 20:00:00 16.7 C 88 % 14.7 C
1394 06-06-2021 20:05:00 16.7 C 88 % 14.7 C
1395 06-06-2021 20:10:00 16.7 C 88 % 14.7 C
1396 06-06-2021 20:15:00 16.7 C 88 % 14.7 C
1397 06-06-2021 20:20:00 16.7 C 88 % 14.7 C
1398 06-06-2021 20:25:00 16.6 C 88 % 14.6 C
1399 06-06-2021 20:30:00 16.6 C 88 % 14.6 C
1400 06-06-2021 20:35:00 16.6 C 88 % 14.6 C
Sensor: Nr:Datum:Temp:Feuchte:Taupunkt:
Aussen-T/F 1401 06-06-2021 20:40:00 16.6 C 88 % 14.6 C
1402 06-06-2021 20:45:00 16.6 C 89 % 14.78 C
1403 06-06-2021 20:50:00 16.6 C 90 % 14.95 C
1404 06-06-2021 20:55:00 16.6 C 89 % 14.78 C
1405 06-06-2021 21:00:00 16.5 C 89 % 14.68 C
1406 06-06-2021 21:05:00 16.4 C 89 % 14.58 C
1407 06-06-2021 21:10:00 16.4 C 89 % 14.58 C
1408 06-06-2021 21:15:00 16.4 C 90 % 14.76 C
1409 06-06-2021 21:20:00 16.4 C 90 % 14.76 C
1410 06-06-2021 21:25:00 16.4 C 90 % 14.76 C
1411 06-06-2021 21:30:00 16.3 C 90 % 14.66 C
1412 06-06-2021 21:35:00 16.3 C 91 % 14.83 C
1413 06-06-2021 21:40:00 16.3 C 91 % 14.83 C
1414 06-06-2021 21:45:00 16.2 C 91 % 14.73 C
1415 06-06-2021 21:50:00 16.2 C 91 % 14.73 C
1416 06-06-2021 21:55:00 16.1 C 91 % 14.63 C
1417 06-06-2021 22:00:00 15.9 C 91 % 14.43 C
1418 06-06-2021 22:05:00 15.8 C 91 % 14.33 C
1419 06-06-2021 22:10:00 15.7 C 91 % 14.24 C
1420 06-06-2021 22:15:00 15.6 C 91 % 14.14 C
1421 06-06-2021 22:20:00 15.5 C 92 % 14.21 C
1422 06-06-2021 22:25:00 15.4 C 92 % 14.11 C
1423 06-06-2021 22:30:00 15.4 C 92 % 14.11 C
1424 06-06-2021 22:35:00 15.4 C 93 % 14.27 C
1425 06-06-2021 22:40:00 15.4 C 93 % 14.27 C
Sensor: Nr:Datum:Temp:Feuchte:Taupunkt:
Aussen-T/F 1426 06-06-2021 22:45:00 15.4 C 93 % 14.27 C
1427 06-06-2021 22:50:00 15.4 C 93 % 14.27 C
1428 06-06-2021 22:55:00 15.4 C 93 % 14.27 C
1429 06-06-2021 23:00:00 15.4 C 94 % 14.44 C
1430 06-06-2021 23:05:00 15.4 C 94 % 14.44 C
1431 06-06-2021 23:10:00 15.4 C 94 % 14.44 C
1432 06-06-2021 23:15:00 15.4 C 94 % 14.44 C
1433 06-06-2021 23:20:00 15.4 C 94 % 14.44 C
1434 06-06-2021 23:25:00 15.3 C 94 % 14.34 C
1435 06-06-2021 23:30:00 15.3 C 94 % 14.34 C
1436 06-06-2021 23:35:00 15.3 C 94 % 14.34 C
1437 06-06-2021 23:40:00 15.3 C 94 % 14.34 C
1438 06-06-2021 23:45:00 15.3 C 94 % 14.34 C
1439 06-06-2021 23:50:00 15.3 C 94 % 14.34 C
1440 06-06-2021 23:55:00 15.3 C 94 % 14.34 C
1441 07-06-2021 00:00:00 15.3 C 94 % 14.34 C
1442 07-06-2021 00:05:00 15.3 C 94 % 14.34 C
1443 07-06-2021 00:10:00 15.3 C 94 % 14.34 C
1444 07-06-2021 00:15:00 15.3 C 94 % 14.34 C
1445 07-06-2021 00:20:00 15.2 C 94 % 14.24 C
1446 07-06-2021 00:25:00 15.3 C 95 % 14.5 C
1447 07-06-2021 00:30:00 15.3 C 94 % 14.34 C
1448 07-06-2021 00:35:00 15.3 C 95 % 14.5 C
1449 07-06-2021 00:40:00 15.3 C 95 % 14.5 C
1450 07-06-2021 00:45:00 15.3 C 95 % 14.5 C
Sensor: Nr:Datum:Temp:Feuchte:Taupunkt:
Aussen-T/F 1451 07-06-2021 00:50:00 15.3 C 95 % 14.5 C
1452 07-06-2021 00:55:00 15.3 C 95 % 14.5 C
1453 07-06-2021 01:00:00 15.3 C 95 % 14.5 C
1454 07-06-2021 01:05:00 15.3 C 95 % 14.5 C
1455 07-06-2021 01:10:00 15.3 C 95 % 14.5 C
1456 07-06-2021 01:15:00 15.3 C 95 % 14.5 C
1457 07-06-2021 01:20:00 15.3 C 95 % 14.5 C
1458 07-06-2021 01:25:00 15.4 C 95 % 14.6 C
1459 07-06-2021 01:30:00 15.4 C 95 % 14.6 C
1460 07-06-2021 01:35:00 15.4 C 95 % 14.6 C
1461 07-06-2021 01:40:00 15.4 C 95 % 14.6 C
1462 07-06-2021 01:45:00 15.4 C 95 % 14.6 C
1463 07-06-2021 01:50:00 15.4 C 95 % 14.6 C
1464 07-06-2021 01:55:00 15.4 C 95 % 14.6 C
1465 07-06-2021 02:00:00 15.4 C 95 % 14.6 C
1466 07-06-2021 02:05:00 15.4 C 95 % 14.6 C
1467 07-06-2021 02:10:00 15.4 C 95 % 14.6 C
1468 07-06-2021 02:15:00 15.4 C 95 % 14.6 C
1469 07-06-2021 02:20:00 15.4 C 95 % 14.6 C
1470 07-06-2021 02:25:00 15.4 C 95 % 14.6 C
1471 07-06-2021 02:30:00 15.4 C 95 % 14.6 C
1472 07-06-2021 02:35:00 15.4 C 95 % 14.6 C
1473 07-06-2021 02:40:00 15.4 C 95 % 14.6 C
1474 07-06-2021 02:45:00 15.4 C 95 % 14.6 C
1475 07-06-2021 02:50:00 15.4 C 95 % 14.6 C
Sensor: Nr:Datum:Temp:Feuchte:Taupunkt:
Aussen-T/F 1476 07-06-2021 02:55:00 15.4 C 95 % 14.6 C
1477 07-06-2021 03:00:00 15.4 C 95 % 14.6 C
1478 07-06-2021 03:05:00 15.4 C 95 % 14.6 C
1479 07-06-2021 03:10:00 15.3 C 95 % 14.5 C
1480 07-06-2021 03:15:00 15.4 C 95 % 14.6 C
1481 07-06-2021 03:20:00 15.3 C 95 % 14.5 C
1482 07-06-2021 03:25:00 15.4 C 95 % 14.6 C
1483 07-06-2021 03:30:00 15.4 C 95 % 14.6 C
1484 07-06-2021 03:35:00 15.4 C 95 % 14.6 C
1485 07-06-2021 03:40:00 15.4 C 96 % 14.77 C
1486 07-06-2021 03:45:00 15.4 C 96 % 14.77 C
1487 07-06-2021 03:50:00 15.4 C 96 % 14.77 C
1488 07-06-2021 03:55:00 15.4 C 96 % 14.77 C
1489 07-06-2021 04:00:00 15.4 C 96 % 14.77 C
1490 07-06-2021 04:05:00 15.4 C 96 % 14.77 C
1491 07-06-2021 04:10:00 15.4 C 96 % 14.77 C
1492 07-06-2021 04:15:00 15.4 C 96 % 14.77 C
1493 07-06-2021 04:20:00 15.4 C 96 % 14.77 C
1494 07-06-2021 04:25:00 15.3 C 95 % 14.5 C
1495 07-06-2021 04:30:00 15.3 C 95 % 14.5 C
1496 07-06-2021 04:35:00 15.3 C 95 % 14.5 C
1497 07-06-2021 04:40:00 15.3 C 95 % 14.5 C
1498 07-06-2021 04:45:00 15.3 C 95 % 14.5 C
1499 07-06-2021 04:50:00 15.3 C 96 % 14.67 C
1500 07-06-2021 04:55:00 15.3 C 96 % 14.67 C
Sensor: Nr:Datum:Temp:Feuchte:Taupunkt:
Aussen-T/F 1501 07-06-2021 05:00:00 15.3 C 96 % 14.67 C
1502 07-06-2021 05:05:00 15.3 C 96 % 14.67 C
1503 07-06-2021 05:10:00 15.3 C 96 % 14.67 C
1504 07-06-2021 05:15:00 15.3 C 96 % 14.67 C
1505 07-06-2021 05:20:00 15.3 C 96 % 14.67 C
1506 07-06-2021 05:25:00 15.3 C 96 % 14.67 C
1507 07-06-2021 05:30:00 15.3 C 96 % 14.67 C
1508 07-06-2021 05:35:00 15.3 C 96 % 14.67 C
1509 07-06-2021 05:40:00 15.3 C 96 % 14.67 C
1510 07-06-2021 05:45:00 15.3 C 96 % 14.67 C
1511 07-06-2021 05:50:00 15.3 C 96 % 14.67 C
1512 07-06-2021 05:55:00 15.3 C 96 % 14.67 C
1513 07-06-2021 06:00:00 15.3 C 96 % 14.67 C
1514 07-06-2021 06:05:00 15.3 C 96 % 14.67 C
1515 07-06-2021 06:10:00 15.3 C 96 % 14.67 C
1516 07-06-2021 06:15:00 15.3 C 96 % 14.67 C
1517 07-06-2021 06:20:00 15.3 C 96 % 14.67 C
1518 07-06-2021 06:25:00 15.4 C 96 % 14.77 C
1519 07-06-2021 06:30:00 15.4 C 96 % 14.77 C
1520 07-06-2021 06:35:00 15.4 C 96 % 14.77 C
1521 07-06-2021 06:40:00 15.4 C 96 % 14.77 C
1522 07-06-2021 06:45:00 15.4 C 96 % 14.77 C
1523 07-06-2021 06:50:00 15.6 C 96 % 14.96 C
1524 07-06-2021 06:55:00 15.6 C 96 % 14.96 C
1525 07-06-2021 07:00:00 15.6 C 96 % 14.96 C
Sensor: Nr:Datum:Temp:Feuchte:Taupunkt:
Aussen-T/F 1526 07-06-2021 07:05:00 15.7 C 96 % 15.06 C
1527 07-06-2021 07:10:00 15.8 C 96 % 15.16 C
1528 07-06-2021 07:15:00 15.8 C 96 % 15.16 C
1529 07-06-2021 07:20:00 15.8 C 96 % 15.16 C
1530 07-06-2021 07:25:00 15.9 C 96 % 15.26 C
1531 07-06-2021 07:30:00 15.9 C 96 % 15.26 C
1532 07-06-2021 07:35:00 15.9 C 96 % 15.26 C
1533 07-06-2021 07:40:00 15.9 C 95 % 15.1 C
1534 07-06-2021 07:45:00 16.1 C 95 % 15.3 C
1535 07-06-2021 07:50:00 16.2 C 96 % 15.56 C
1536 07-06-2021 07:55:00 16.2 C 95 % 15.4 C
1537 07-06-2021 08:00:00 16.3 C 94 % 15.33 C
1538 07-06-2021 08:05:00 16.4 C 95 % 15.6 C
1539 07-06-2021 08:10:00 16.4 C 93 % 15.27 C
1540 07-06-2021 08:15:00 16.6 C 93 % 15.46 C
1541 07-06-2021 08:20:00 16.6 C 93 % 15.46 C
1542 07-06-2021 08:25:00 16.7 C 92 % 15.39 C
1543 07-06-2021 08:30:00 16.8 C 90 % 15.15 C
1544 07-06-2021 08:35:00 16.9 C 90 % 15.25 C
1545 07-06-2021 08:40:00 17.1 C 90 % 15.45 C
1546 07-06-2021 08:45:00 17.1 C 89 % 15.27 C
1547 07-06-2021 08:50:00 17.2 C 88 % 15.2 C
1548 07-06-2021 08:55:00 17.3 C 88 % 15.29 C
1549 07-06-2021 09:00:00 17.3 C 88 % 15.29 C
1550 07-06-2021 09:05:00 17.3 C 88 % 15.29 C
Sensor: Nr:Datum:Temp:Feuchte:Taupunkt:
Aussen-T/F 1551 07-06-2021 09:10:00 17.4 C 87 % 15.21 C
1552 07-06-2021 09:15:00 17.4 C 87 % 15.21 C
1553 07-06-2021 09:20:00 17.5 C 87 % 15.31 C
1554 07-06-2021 09:25:00 17.5 C 87 % 15.31 C
1555 07-06-2021 09:30:00 17.6 C 87 % 15.41 C
1556 07-06-2021 09:35:00 17.6 C 87 % 15.41 C
1557 07-06-2021 09:40:00 17.6 C 86 % 15.23 C
1558 07-06-2021 09:45:00 17.6 C 86 % 15.23 C
1559 07-06-2021 09:50:00 17.7 C 86 % 15.33 C
1560 07-06-2021 09:55:00 17.8 C 86 % 15.43 C
1561 07-06-2021 10:00:00 17.9 C 86 % 15.53 C
1562 07-06-2021 10:05:00 18.1 C 85 % 15.54 C
1563 07-06-2021 10:10:00 18.1 C 84 % 15.35 C
1564 07-06-2021 10:15:00 18.3 C 84 % 15.55 C
1565 07-06-2021 10:20:00 18.4 C 84 % 15.65 C
1566 07-06-2021 10:25:00 18.6 C 83 % 15.66 C
1567 07-06-2021 10:30:00 18.6 C 82 % 15.47 C
1568 07-06-2021 10:35:00 18.6 C 82 % 15.47 C
1569 07-06-2021 10:40:00 18.6 C 83 % 15.66 C
1570 07-06-2021 10:45:00 18.5 C 83 % 15.56 C
1571 07-06-2021 10:50:00 18.5 C 83 % 15.56 C
1572 07-06-2021 10:55:00 18.6 C 82 % 15.47 C
1573 07-06-2021 11:00:00 18.6 C 82 % 15.47 C
1574 07-06-2021 11:05:00 18.7 C 82 % 15.57 C
1575 07-06-2021 11:10:00 18.9 C 83 % 15.95 C
Sensor: Nr:Datum:Temp:Feuchte:Taupunkt:
Aussen-T/F 1576 07-06-2021 11:15:00 19.2 C 81 % 15.86 C
1577 07-06-2021 11:20:00 19.3 C 79 % 15.57 C
1578 07-06-2021 11:25:00 19.3 C 80 % 15.76 C
1579 07-06-2021 11:30:00 19.3 C 79 % 15.57 C
1580 07-06-2021 11:35:00 19.3 C 79 % 15.57 C
1581 07-06-2021 11:40:00 19.1 C 79 % 15.37 C
1582 07-06-2021 11:45:00 19 C 80 % 15.47 C
1583 07-06-2021 11:50:00 18.9 C 80 % 15.38 C
1584 07-06-2021 11:55:00 18.9 C 81 % 15.57 C
1585 07-06-2021 12:00:00 18.9 C 82 % 15.76 C
1586 07-06-2021 12:05:00 18.9 C 82 % 15.76 C
1587 07-06-2021 12:10:00 18.9 C 84 % 16.14 C
1588 07-06-2021 12:15:00 18.9 C 83 % 15.95 C
1589 07-06-2021 12:20:00 18.8 C 84 % 16.04 C
1590 07-06-2021 12:25:00 18.9 C 85 % 16.32 C
1591 07-06-2021 12:30:00 18.8 C 85 % 16.23 C
1592 07-06-2021 12:35:00 18.8 C 82 % 15.66 C
1593 07-06-2021 12:40:00 19 C 81 % 15.67 C
1594 07-06-2021 12:45:00 19.2 C 78 % 15.27 C
1595 07-06-2021 12:50:00 19.4 C 77 % 15.27 C
1596 07-06-2021 12:55:00 19.5 C 77 % 15.36 C
1597 07-06-2021 13:00:00 19.6 C 78 % 15.66 C
1598 07-06-2021 13:05:00 19.6 C 78 % 15.66 C
1599 07-06-2021 13:10:00 19.7 C 78 % 15.76 C
1600 07-06-2021 13:15:00 19.8 C 76 % 15.45 C
Sensor: Nr:Datum:Temp:Feuchte:Taupunkt:
Aussen-T/F 1601 07-06-2021 13:20:00 19.8 C 76 % 15.45 C
1602 07-06-2021 13:25:00 19.9 C 76 % 15.54 C
1603 07-06-2021 13:30:00 20 C 76 % 15.64 C
1604 07-06-2021 13:35:00 20 C 75 % 15.43 C
1605 07-06-2021 13:40:00 19.9 C 76 % 15.54 C
1606 07-06-2021 13:45:00 19.9 C 75 % 15.34 C
1607 07-06-2021 13:50:00 19.9 C 75 % 15.34 C
1608 07-06-2021 13:55:00 19.9 C 76 % 15.54 C
1609 07-06-2021 14:00:00 19.9 C 76 % 15.54 C
1610 07-06-2021 14:05:00 20 C 75 % 15.43 C
1611 07-06-2021 14:10:00 20.1 C 75 % 15.53 C
1612 07-06-2021 14:15:00 20.2 C 74 % 15.42 C
1613 07-06-2021 14:20:00 20.2 C 75 % 15.63 C
1614 07-06-2021 14:25:00 20.2 C 73 % 15.21 C
1615 07-06-2021 14:30:00 20.2 C 73 % 15.21 C
1616 07-06-2021 14:35:00 20.2 C 74 % 15.42 C
1617 07-06-2021 14:40:00 20.1 C 73 % 15.11 C
1618 07-06-2021 14:45:00 20.1 C 73 % 15.11 C
1619 07-06-2021 14:50:00 20 C 74 % 15.23 C
1620 07-06-2021 14:55:00 20 C 74 % 15.23 C
1621 07-06-2021 15:00:00 19.9 C 73 % 14.92 C
1622 07-06-2021 15:05:00 19.9 C 74 % 15.13 C
1623 07-06-2021 15:10:00 19.9 C 74 % 15.13 C
1624 07-06-2021 15:15:00 20 C 75 % 15.43 C
1625 07-06-2021 15:20:00 20.1 C 76 % 15.74 C
Sensor: Nr:Datum:Temp:Feuchte:Taupunkt:
Aussen-T/F 1626 07-06-2021 15:25:00 20.2 C 75 % 15.63 C
1627 07-06-2021 15:30:00 20.2 C 75 % 15.63 C
1628 07-06-2021 15:35:00 20.1 C 74 % 15.32 C
1629 07-06-2021 15:40:00 20.1 C 74 % 15.32 C
1630 07-06-2021 15:45:00 20 C 75 % 15.43 C
1631 07-06-2021 15:50:00 20 C 75 % 15.43 C
1632 07-06-2021 15:55:00 20 C 76 % 15.64 C
1633 07-06-2021 16:00:00 19.9 C 75 % 15.34 C
1634 07-06-2021 16:05:00 20 C 76 % 15.64 C
1635 07-06-2021 16:10:00 20.1 C 77 % 15.94 C
1636 07-06-2021 16:15:00 20.1 C 77 % 15.94 C
1637 07-06-2021 16:20:00 20.2 C 77 % 16.04 C
1638 07-06-2021 16:25:00 20.2 C 79 % 16.44 C
1639 07-06-2021 16:30:00 20.2 C 82 % 17.03 C
1640 07-06-2021 16:35:00 20.1 C 80 % 16.54 C
1641 07-06-2021 16:40:00 19.8 C 84 % 17.02 C
1642 07-06-2021 16:45:00 19.7 C 85 % 17.11 C
1643 07-06-2021 16:50:00 19.5 C 86 % 17.1 C
1644 07-06-2021 16:55:00 19.3 C 87 % 17.08 C
1645 07-06-2021 17:00:00 19.2 C 88 % 17.16 C
1646 07-06-2021 17:05:00 18.9 C 88 % 16.87 C
1647 07-06-2021 17:10:00 18.7 C 88 % 16.67 C
1648 07-06-2021 17:15:00 18.5 C 89 % 16.65 C
1649 07-06-2021 17:20:00 18.4 C 89 % 16.55 C
1650 07-06-2021 17:25:00 18.3 C 90 % 16.63 C
Sensor: Nr:Datum:Temp:Feuchte:Taupunkt:
Aussen-T/F 1651 07-06-2021 17:30:00 18.3 C 91 % 16.81 C
1652 07-06-2021 17:35:00 18.2 C 91 % 16.71 C
1653 07-06-2021 17:40:00 18.2 C 91 % 16.71 C
1654 07-06-2021 17:45:00 18.1 C 92 % 16.78 C
1655 07-06-2021 17:50:00 18.1 C 92 % 16.78 C
1656 07-06-2021 17:55:00 18.1 C 92 % 16.78 C
1657 07-06-2021 18:00:00 18.2 C 93 % 17.05 C
1658 07-06-2021 18:05:00 18.2 C 93 % 17.05 C
1659 07-06-2021 18:10:00 18.2 C 93 % 17.05 C
1660 07-06-2021 18:15:00 18.3 C 93 % 17.15 C
1661 07-06-2021 18:20:00 18.3 C 93 % 17.15 C
1662 07-06-2021 18:25:00 18.4 C 94 % 17.42 C
1663 07-06-2021 18:30:00 18.5 C 94 % 17.52 C
1664 07-06-2021 18:35:00 18.6 C 94 % 17.62 C
1665 07-06-2021 18:40:00 18.6 C 94 % 17.62 C
1666 07-06-2021 18:45:00 18.7 C 94 % 17.71 C
1667 07-06-2021 18:50:00 18.7 C 94 % 17.71 C
1668 07-06-2021 18:55:00 18.7 C 93 % 17.54 C
1669 07-06-2021 19:00:00 18.7 C 93 % 17.54 C
1670 07-06-2021 19:05:00 18.7 C 93 % 17.54 C
1671 07-06-2021 19:10:00 18.7 C 93 % 17.54 C
1672 07-06-2021 19:15:00 18.7 C 93 % 17.54 C
1673 07-06-2021 19:20:00 18.6 C 93 % 17.45 C
1674 07-06-2021 19:25:00 18.6 C 93 % 17.45 C
1675 07-06-2021 19:30:00 18.6 C 93 % 17.45 C
Sensor: Nr:Datum:Temp:Feuchte:Taupunkt:
Aussen-T/F 1676 07-06-2021 19:35:00 18.5 C 93 % 17.35 C
1677 07-06-2021 19:40:00 18.5 C 93 % 17.35 C
1678 07-06-2021 19:45:00 18.4 C 93 % 17.25 C
1679 07-06-2021 19:50:00 18.4 C 93 % 17.25 C
1680 07-06-2021 19:55:00 18.3 C 93 % 17.15 C
1681 07-06-2021 20:00:00 18.2 C 93 % 17.05 C
1682 07-06-2021 20:05:00 18.2 C 93 % 17.05 C
1683 07-06-2021 20:10:00 18.1 C 93 % 16.95 C
1684 07-06-2021 20:15:00 17.9 C 93 % 16.75 C
1685 07-06-2021 20:20:00 17.9 C 93 % 16.75 C
1686 07-06-2021 20:25:00 17.8 C 93 % 16.65 C
1687 07-06-2021 20:30:00 17.7 C 93 % 16.55 C
1688 07-06-2021 20:35:00 17.7 C 93 % 16.55 C
1689 07-06-2021 20:40:00 17.6 C 93 % 16.45 C
1690 07-06-2021 20:45:00 17.6 C 93 % 16.45 C
1691 07-06-2021 20:50:00 17.5 C 93 % 16.36 C
1692 07-06-2021 20:55:00 17.4 C 93 % 16.26 C
1693 07-06-2021 21:00:00 17.4 C 93 % 16.26 C
1694 07-06-2021 21:05:00 17.4 C 94 % 16.42 C
1695 07-06-2021 21:10:00 17.3 C 93 % 16.16 C
1696 07-06-2021 21:15:00 17.3 C 93 % 16.16 C
1697 07-06-2021 21:20:00 17.2 C 93 % 16.06 C
1698 07-06-2021 21:25:00 17.1 C 94 % 16.13 C
1699 07-06-2021 21:30:00 17 C 94 % 16.03 C
1700 07-06-2021 21:35:00 16.9 C 94 % 15.93 C
Sensor: Nr:Datum:Temp:Feuchte:Taupunkt:
Aussen-T/F 1701 07-06-2021 21:40:00 16.9 C 94 % 15.93 C
1702 07-06-2021 21:45:00 16.8 C 94 % 15.83 C
1703 07-06-2021 21:50:00 16.8 C 94 % 15.83 C
1704 07-06-2021 21:55:00 16.7 C 94 % 15.73 C
1705 07-06-2021 22:00:00 16.7 C 94 % 15.73 C
1706 07-06-2021 22:05:00 16.6 C 94 % 15.63 C
1707 07-06-2021 22:10:00 16.6 C 94 % 15.63 C
1708 07-06-2021 22:15:00 16.5 C 94 % 15.53 C
1709 07-06-2021 22:20:00 16.4 C 94 % 15.43 C
1710 07-06-2021 22:25:00 16.4 C 94 % 15.43 C
1711 07-06-2021 22:30:00 16.4 C 94 % 15.43 C
1712 07-06-2021 22:35:00 16.3 C 94 % 15.33 C
1713 07-06-2021 22:40:00 16.3 C 94 % 15.33 C
1714 07-06-2021 22:45:00 16.3 C 94 % 15.33 C
1715 07-06-2021 22:50:00 16.3 C 94 % 15.33 C
1716 07-06-2021 22:55:00 16.3 C 94 % 15.33 C
1717 07-06-2021 23:00:00 16.3 C 94 % 15.33 C
1718 07-06-2021 23:05:00 16.3 C 94 % 15.33 C
1719 07-06-2021 23:10:00 16.2 C 94 % 15.23 C
1720 07-06-2021 23:15:00 16.2 C 94 % 15.23 C
1721 07-06-2021 23:20:00 16.2 C 94 % 15.23 C
1722 07-06-2021 23:25:00 16.2 C 95 % 15.4 C
1723 07-06-2021 23:30:00 16.2 C 95 % 15.4 C
1724 07-06-2021 23:35:00 16.2 C 95 % 15.4 C
1725 07-06-2021 23:40:00 16.2 C 95 % 15.4 C
Sensor: Nr:Datum:Temp:Feuchte:Taupunkt:
Aussen-T/F 1726 07-06-2021 23:45:00 16.1 C 95 % 15.3 C
1727 07-06-2021 23:50:00 16.1 C 95 % 15.3 C
1728 07-06-2021 23:55:00 16.2 C 95 % 15.4 C
1729 08-06-2021 00:00:00 16.2 C 95 % 15.4 C
1730 08-06-2021 00:05:00 16.1 C 95 % 15.3 C
1731 08-06-2021 00:10:00 16.2 C 95 % 15.4 C
1732 08-06-2021 00:15:00 16.1 C 95 % 15.3 C
1733 08-06-2021 00:20:00 16.1 C 95 % 15.3 C
1734 08-06-2021 00:25:00 16.1 C 95 % 15.3 C
1735 08-06-2021 00:30:00 16.1 C 95 % 15.3 C
1736 08-06-2021 00:35:00 16.1 C 95 % 15.3 C
1737 08-06-2021 00:40:00 16.1 C 95 % 15.3 C
1738 08-06-2021 00:45:00 16.1 C 95 % 15.3 C
1739 08-06-2021 00:50:00 16.1 C 95 % 15.3 C
1740 08-06-2021 00:55:00 16.1 C 95 % 15.3 C
1741 08-06-2021 01:00:00 16.1 C 95 % 15.3 C
1742 08-06-2021 01:05:00 16.1 C 95 % 15.3 C
1743 08-06-2021 01:10:00 16.1 C 95 % 15.3 C
1744 08-06-2021 01:15:00 16 C 95 % 15.2 C
1745 08-06-2021 01:20:00 16 C 95 % 15.2 C
1746 08-06-2021 01:25:00 16 C 95 % 15.2 C
1747 08-06-2021 01:30:00 16 C 95 % 15.2 C
1748 08-06-2021 01:35:00 16 C 95 % 15.2 C
1749 08-06-2021 01:40:00 16 C 95 % 15.2 C
1750 08-06-2021 01:45:00 16 C 95 % 15.2 C
Sensor: Nr:Datum:Temp:Feuchte:Taupunkt:
Aussen-T/F 1751 08-06-2021 01:50:00 16 C 95 % 15.2 C
1752 08-06-2021 01:55:00 15.9 C 95 % 15.1 C
1753 08-06-2021 02:00:00 15.9 C 95 % 15.1 C
1754 08-06-2021 02:05:00 15.9 C 95 % 15.1 C
1755 08-06-2021 02:10:00 15.9 C 95 % 15.1 C
1756 08-06-2021 02:15:00 15.9 C 95 % 15.1 C
1757 08-06-2021 02:20:00 15.9 C 95 % 15.1 C
1758 08-06-2021 02:25:00 15.9 C 95 % 15.1 C
1759 08-06-2021 02:30:00 15.8 C 95 % 15 C
1760 08-06-2021 02:35:00 15.8 C 95 % 15 C
1761 08-06-2021 02:40:00 15.8 C 95 % 15 C
1762 08-06-2021 02:45:00 15.7 C 95 % 14.9 C
1763 08-06-2021 02:50:00 15.7 C 95 % 14.9 C
1764 08-06-2021 02:55:00 15.7 C 95 % 14.9 C
1765 08-06-2021 03:00:00 15.7 C 95 % 14.9 C
1766 08-06-2021 03:05:00 15.7 C 95 % 14.9 C
1767 08-06-2021 03:10:00 15.7 C 95 % 14.9 C
1768 08-06-2021 03:15:00 15.7 C 95 % 14.9 C
1769 08-06-2021 03:20:00 15.7 C 95 % 14.9 C
1770 08-06-2021 03:25:00 15.7 C 95 % 14.9 C
1771 08-06-2021 03:30:00 15.7 C 95 % 14.9 C
1772 08-06-2021 03:35:00 15.7 C 95 % 14.9 C
1773 08-06-2021 03:40:00 15.7 C 95 % 14.9 C
1774 08-06-2021 03:45:00 15.7 C 95 % 14.9 C
1775 08-06-2021 03:50:00 15.6 C 95 % 14.8 C
Sensor: Nr:Datum:Temp:Feuchte:Taupunkt:
Aussen-T/F 1776 08-06-2021 03:55:00 15.6 C 95 % 14.8 C
1777 08-06-2021 04:00:00 15.6 C 95 % 14.8 C
1778 08-06-2021 04:05:00 15.6 C 95 % 14.8 C
1779 08-06-2021 04:10:00 15.6 C 95 % 14.8 C
1780 08-06-2021 04:15:00 15.6 C 95 % 14.8 C
1781 08-06-2021 04:20:00 15.6 C 95 % 14.8 C
1782 08-06-2021 04:25:00 15.6 C 95 % 14.8 C
1783 08-06-2021 04:30:00 15.6 C 95 % 14.8 C
1784 08-06-2021 04:35:00 15.6 C 95 % 14.8 C
1785 08-06-2021 04:40:00 15.6 C 95 % 14.8 C
1786 08-06-2021 04:45:00 15.5 C 95 % 14.7 C
1787 08-06-2021 04:50:00 15.5 C 96 % 14.86 C
1788 08-06-2021 04:55:00 15.5 C 96 % 14.86 C
1789 08-06-2021 05:00:00 15.5 C 96 % 14.86 C
1790 08-06-2021 05:05:00 15.4 C 96 % 14.77 C
1791 08-06-2021 05:10:00 15.5 C 96 % 14.86 C
1792 08-06-2021 05:15:00 15.4 C 96 % 14.77 C
1793 08-06-2021 05:20:00 15.4 C 96 % 14.77 C
1794 08-06-2021 05:25:00 15.4 C 96 % 14.77 C
1795 08-06-2021 05:30:00 15.4 C 96 % 14.77 C
1796 08-06-2021 05:35:00 15.4 C 96 % 14.77 C
1797 08-06-2021 05:40:00 15.4 C 96 % 14.77 C
1798 08-06-2021 05:45:00 15.4 C 96 % 14.77 C
1799 08-06-2021 05:50:00 15.4 C 96 % 14.77 C
1800 08-06-2021 05:55:00 15.4 C 96 % 14.77 C
Sensor: Nr:Datum:Temp:Feuchte:Taupunkt:
Aussen-T/F 1801 08-06-2021 06:00:00 15.4 C 96 % 14.77 C
1802 08-06-2021 06:05:00 15.4 C 96 % 14.77 C
1803 08-06-2021 06:10:00 15.4 C 96 % 14.77 C
1804 08-06-2021 06:15:00 15.4 C 96 % 14.77 C
1805 08-06-2021 06:20:00 15.4 C 96 % 14.77 C
1806 08-06-2021 06:25:00 15.4 C 96 % 14.77 C
1807 08-06-2021 06:30:00 15.5 C 96 % 14.86 C
1808 08-06-2021 06:35:00 15.5 C 96 % 14.86 C
1809 08-06-2021 06:40:00 15.5 C 96 % 14.86 C
1810 08-06-2021 06:45:00 15.6 C 96 % 14.96 C
1811 08-06-2021 06:50:00 15.6 C 96 % 14.96 C
1812 08-06-2021 06:55:00 15.6 C 96 % 14.96 C
1813 08-06-2021 07:00:00 15.7 C 96 % 15.06 C
1814 08-06-2021 07:05:00 15.7 C 96 % 15.06 C
1815 08-06-2021 07:10:00 15.8 C 96 % 15.16 C
1816 08-06-2021 07:15:00 15.8 C 96 % 15.16 C
1817 08-06-2021 07:20:00 15.8 C 96 % 15.16 C
1818 08-06-2021 07:25:00 15.9 C 96 % 15.26 C
1819 08-06-2021 07:30:00 16 C 96 % 15.36 C
1820 08-06-2021 07:35:00 16.1 C 96 % 15.46 C
1821 08-06-2021 07:40:00 16.2 C 96 % 15.56 C
1822 08-06-2021 07:45:00 16.2 C 96 % 15.56 C
1823 08-06-2021 07:50:00 16.2 C 96 % 15.56 C
1824 08-06-2021 07:55:00 16.3 C 96 % 15.66 C
1825 08-06-2021 08:00:00 16.3 C 96 % 15.66 C
Sensor: Nr:Datum:Temp:Feuchte:Taupunkt:
Aussen-T/F 1826 08-06-2021 08:05:00 16.3 C 95 % 15.5 C
1827 08-06-2021 08:10:00 16.4 C 95 % 15.6 C
1828 08-06-2021 08:15:00 16.4 C 95 % 15.6 C
1829 08-06-2021 08:20:00 16.5 C 95 % 15.7 C
1830 08-06-2021 08:25:00 16.6 C 95 % 15.8 C
1831 08-06-2021 08:30:00 16.6 C 95 % 15.8 C
1832 08-06-2021 08:35:00 16.7 C 94 % 15.73 C
1833 08-06-2021 08:40:00 16.8 C 94 % 15.83 C
1834 08-06-2021 08:45:00 16.9 C 93 % 15.76 C
1835 08-06-2021 08:50:00 17 C 92 % 15.69 C
1836 08-06-2021 08:55:00 17.1 C 92 % 15.79 C
1837 08-06-2021 09:00:00 17.2 C 91 % 15.72 C
1838 08-06-2021 09:05:00 17.3 C 92 % 15.99 C
1839 08-06-2021 09:10:00 17.4 C 90 % 15.74 C
1840 08-06-2021 09:15:00 17.4 C 90 % 15.74 C
1841 08-06-2021 09:20:00 17.6 C 91 % 16.11 C
1842 08-06-2021 09:25:00 17.7 C 89 % 15.86 C
1843 08-06-2021 09:30:00 17.7 C 89 % 15.86 C
1844 08-06-2021 09:35:00 17.7 C 89 % 15.86 C
1845 08-06-2021 09:40:00 17.8 C 88 % 15.79 C
1846 08-06-2021 09:45:00 17.9 C 88 % 15.88 C
1847 08-06-2021 09:50:00 18.2 C 88 % 16.18 C
1848 08-06-2021 09:55:00 18.2 C 87 % 16 C
1849 08-06-2021 10:00:00 18.4 C 88 % 16.38 C
1850 08-06-2021 10:05:00 18.4 C 86 % 16.02 C
Sensor: Nr:Datum:Temp:Feuchte:Taupunkt:
Aussen-T/F 1851 08-06-2021 10:10:00 18.6 C 86 % 16.21 C
1852 08-06-2021 10:15:00 18.6 C 86 % 16.21 C
1853 08-06-2021 10:20:00 18.7 C 85 % 16.13 C
1854 08-06-2021 10:25:00 18.7 C 86 % 16.31 C
1855 08-06-2021 10:30:00 18.9 C 85 % 16.32 C
1856 08-06-2021 10:35:00 19.1 C 84 % 16.33 C
1857 08-06-2021 10:40:00 19.2 C 83 % 16.24 C
1858 08-06-2021 10:45:00 19.4 C 81 % 16.06 C
1859 08-06-2021 10:50:00 19.5 C 81 % 16.15 C
1860 08-06-2021 10:55:00 19.7 C 81 % 16.35 C
1861 08-06-2021 11:00:00 19.8 C 80 % 16.25 C
1862 08-06-2021 11:05:00 20.1 C 80 % 16.54 C
1863 08-06-2021 11:10:00 20.2 C 78 % 16.24 C
1864 08-06-2021 11:15:00 20.3 C 79 % 16.54 C
1865 08-06-2021 11:20:00 20.4 C 77 % 16.23 C
1866 08-06-2021 11:25:00 20.5 C 76 % 16.12 C
1867 08-06-2021 11:30:00 20.7 C 77 % 16.52 C
1868 08-06-2021 11:35:00 20.7 C 75 % 16.11 C
1869 08-06-2021 11:40:00 20.8 C 75 % 16.21 C
1870 08-06-2021 11:45:00 20.8 C 74 % 16 C
1871 08-06-2021 11:50:00 20.8 C 74 % 16 C
1872 08-06-2021 11:55:00 20.8 C 75 % 16.21 C
1873 08-06-2021 12:00:00 21 C 76 % 16.61 C
1874 08-06-2021 12:05:00 21.1 C 76 % 16.7 C
1875 08-06-2021 12:10:00 21.2 C 72 % 15.95 C
Sensor: Nr:Datum:Temp:Feuchte:Taupunkt:
Aussen-T/F 1876 08-06-2021 12:15:00 21.3 C 74 % 16.48 C
1877 08-06-2021 12:20:00 21.4 C 73 % 16.36 C
1878 08-06-2021 12:25:00 21.4 C 75 % 16.79 C
1879 08-06-2021 12:30:00 21.4 C 75 % 16.79 C
1880 08-06-2021 12:35:00 21.5 C 74 % 16.67 C
1881 08-06-2021 12:40:00 21.5 C 73 % 16.46 C
1882 08-06-2021 12:45:00 21.6 C 73 % 16.55 C
1883 08-06-2021 12:50:00 21.6 C 73 % 16.55 C
1884 08-06-2021 12:55:00 21.6 C 73 % 16.55 C
1885 08-06-2021 13:00:00 21.7 C 73 % 16.65 C
1886 08-06-2021 13:05:00 21.7 C 74 % 16.86 C
1887 08-06-2021 13:10:00 21.8 C 73 % 16.75 C
1888 08-06-2021 13:15:00 21.9 C 73 % 16.84 C
1889 08-06-2021 13:20:00 21.9 C 74 % 17.06 C
1890 08-06-2021 13:25:00 21.9 C 73 % 16.84 C
1891 08-06-2021 13:30:00 21.9 C 72 % 16.62 C
1892 08-06-2021 13:35:00 22 C 73 % 16.94 C
1893 08-06-2021 13:40:00 22.1 C 73 % 17.03 C
1894 08-06-2021 13:45:00 22.1 C 69 % 16.15 C
1895 08-06-2021 13:50:00 22.2 C 72 % 16.91 C
1896 08-06-2021 13:55:00 22.2 C 70 % 16.47 C
1897 08-06-2021 14:00:00 22.2 C 71 % 16.69 C
1898 08-06-2021 14:05:00 22.2 C 70 % 16.47 C
1899 08-06-2021 14:10:00 22 C 71 % 16.5 C
1900 08-06-2021 14:15:00 21.9 C 71 % 16.4 C
Sensor: Nr:Datum:Temp:Feuchte:Taupunkt:
Aussen-T/F 1901 08-06-2021 14:20:00 21.8 C 70 % 16.09 C
1902 08-06-2021 14:25:00 21.7 C 71 % 16.21 C
1903 08-06-2021 14:30:00 21.6 C 70 % 15.89 C
1904 08-06-2021 14:35:00 21.6 C 70 % 15.89 C
1905 08-06-2021 14:40:00 21.7 C 70 % 15.99 C
1906 08-06-2021 14:45:00 21.7 C 69 % 15.77 C
1907 08-06-2021 14:50:00 21.8 C 69 % 15.86 C
1908 08-06-2021 14:55:00 21.9 C 68 % 15.73 C
1909 08-06-2021 15:00:00 22.1 C 69 % 16.15 C
1910 08-06-2021 15:05:00 22.2 C 69 % 16.24 C
1911 08-06-2021 15:10:00 22.3 C 69 % 16.34 C
1912 08-06-2021 15:15:00 22.3 C 69 % 16.34 C
1913 08-06-2021 15:20:00 22.4 C 70 % 16.66 C
1914 08-06-2021 15:25:00 22.4 C 69 % 16.43 C
1915 08-06-2021 15:30:00 22.5 C 70 % 16.76 C
1916 08-06-2021 15:35:00 22.6 C 68 % 16.39 C
1917 08-06-2021 15:40:00 22.6 C 69 % 16.62 C
1918 08-06-2021 15:45:00 22.6 C 68 % 16.39 C
1919 08-06-2021 15:50:00 22.6 C 66 % 15.93 C
1920 08-06-2021 15:55:00 22.5 C 67 % 16.07 C
1921 08-06-2021 16:00:00 22.6 C 68 % 16.39 C
1922 08-06-2021 16:05:00 22.6 C 67 % 16.16 C
1923 08-06-2021 16:10:00 22.6 C 67 % 16.16 C
1924 08-06-2021 16:15:00 22.7 C 68 % 16.49 C
1925 08-06-2021 16:20:00 22.7 C 66 % 16.02 C
Sensor: Nr:Datum:Temp:Feuchte:Taupunkt:
Aussen-T/F 1926 08-06-2021 16:25:00 22.8 C 68 % 16.59 C
1927 08-06-2021 16:30:00 22.9 C 66 % 16.21 C
1928 08-06-2021 16:35:00 23 C 65 % 16.07 C
1929 08-06-2021 16:40:00 23 C 65 % 16.07 C
1930 08-06-2021 16:45:00 23 C 68 % 16.78 C
1931 08-06-2021 16:50:00 23.1 C 65 % 16.16 C
1932 08-06-2021 16:55:00 23.1 C 66 % 16.4 C
1933 08-06-2021 17:00:00 23.1 C 63 % 15.67 C
1934 08-06-2021 17:05:00 23.1 C 65 % 16.16 C
1935 08-06-2021 17:10:00 23 C 64 % 15.82 C
1936 08-06-2021 17:15:00 22.9 C 64 % 15.73 C
1937 08-06-2021 17:20:00 22.8 C 64 % 15.64 C
1938 08-06-2021 17:25:00 22.8 C 64 % 15.64 C
1939 08-06-2021 17:30:00 22.8 C 64 % 15.64 C
1940 08-06-2021 17:35:00 22.9 C 64 % 15.73 C
1941 08-06-2021 17:40:00 23.1 C 66 % 16.4 C
1942 08-06-2021 17:45:00 23.6 C 62 % 15.89 C
1943 08-06-2021 17:50:00 23.9 C 62 % 16.18 C
1944 08-06-2021 17:55:00 23.9 C 64 % 16.68 C
1945 08-06-2021 18:00:00 23.8 C 62 % 16.08 C
1946 08-06-2021 18:05:00 23.7 C 61 % 15.73 C
1947 08-06-2021 18:10:00 23.7 C 61 % 15.73 C
1948 08-06-2021 18:15:00 23.7 C 62 % 15.99 C
1949 08-06-2021 18:20:00 23.4 C 62 % 15.71 C
1950 08-06-2021 18:25:00 23.3 C 63 % 15.86 C
Sensor: Nr:Datum:Temp:Feuchte:Taupunkt:
Aussen-T/F 1951 08-06-2021 18:30:00 23.3 C 63 % 15.86 C
1952 08-06-2021 18:35:00 23.2 C 62 % 15.52 C
1953 08-06-2021 18:40:00 23.2 C 61 % 15.26 C
1954 08-06-2021 18:45:00 23.2 C 61 % 15.26 C
1955 08-06-2021 18:50:00 23.5 C 60 % 15.29 C
1956 08-06-2021 18:55:00 23.6 C 62 % 15.89 C
1957 08-06-2021 19:00:00 23.6 C 62 % 15.89 C
1958 08-06-2021 19:05:00 23.4 C 60 % 15.19 C
1959 08-06-2021 19:10:00 23.3 C 62 % 15.61 C
1960 08-06-2021 19:15:00 23.2 C 61 % 15.26 C
1961 08-06-2021 19:20:00 23.1 C 62 % 15.42 C
1962 08-06-2021 19:25:00 23 C 62 % 15.33 C
1963 08-06-2021 19:30:00 22.9 C 63 % 15.48 C
1964 08-06-2021 19:35:00 22.8 C 66 % 16.12 C
1965 08-06-2021 19:40:00 22.9 C 69 % 16.91 C
1966 08-06-2021 19:45:00 22.8 C 66 % 16.12 C
1967 08-06-2021 19:50:00 22.7 C 64 % 15.54 C
1968 08-06-2021 19:55:00 22.7 C 64 % 15.54 C
1969 08-06-2021 20:00:00 22.7 C 65 % 15.78 C
1970 08-06-2021 20:05:00 22.7 C 65 % 15.78 C
1971 08-06-2021 20:10:00 22.7 C 66 % 16.02 C
1972 08-06-2021 20:15:00 22.8 C 66 % 16.12 C
1973 08-06-2021 20:20:00 22.7 C 64 % 15.54 C
1974 08-06-2021 20:25:00 22.7 C 66 % 16.02 C
1975 08-06-2021 20:30:00 22.7 C 71 % 17.17 C
Sensor: Nr:Datum:Temp:Feuchte:Taupunkt:
Aussen-T/F 1976 08-06-2021 20:35:00 22.6 C 68 % 16.39 C
1977 08-06-2021 20:40:00 22.4 C 65 % 15.5 C
1978 08-06-2021 20:45:00 22.3 C 70 % 16.56 C
1979 08-06-2021 20:50:00 22.2 C 73 % 17.13 C
1980 08-06-2021 20:55:00 22 C 74 % 17.15 C
1981 08-06-2021 21:00:00 21.7 C 75 % 17.07 C
1982 08-06-2021 21:05:00 21.2 C 76 % 16.8 C
1983 08-06-2021 21:10:00 20.7 C 71 % 15.25 C
1984 08-06-2021 21:15:00 20.5 C 76 % 16.12 C
1985 08-06-2021 21:20:00 20.3 C 77 % 16.14 C
1986 08-06-2021 21:25:00 20 C 78 % 16.05 C
1987 08-06-2021 21:30:00 19.7 C 79 % 15.96 C
1988 08-06-2021 21:35:00 19.3 C 79 % 15.57 C
1989 08-06-2021 21:40:00 19.1 C 80 % 15.57 C
1990 08-06-2021 21:45:00 18.8 C 80 % 15.28 C
1991 08-06-2021 21:50:00 18.6 C 81 % 15.28 C
1992 08-06-2021 21:55:00 18.3 C 82 % 15.17 C
1993 08-06-2021 22:00:00 18.1 C 82 % 14.98 C
1994 08-06-2021 22:05:00 17.9 C 83 % 14.97 C
1995 08-06-2021 22:10:00 17.7 C 83 % 14.78 C
1996 08-06-2021 22:15:00 17.6 C 83 % 14.68 C
1997 08-06-2021 22:20:00 17.6 C 83 % 14.68 C
1998 08-06-2021 22:25:00 17.4 C 84 % 14.67 C
1999 08-06-2021 22:30:00 17.4 C 84 % 14.67 C
2000 08-06-2021 22:35:00 17.3 C 85 % 14.76 C
Sensor: Nr:Datum:Temp:Feuchte:Taupunkt:
Aussen-T/F 2001 08-06-2021 22:40:00 17.3 C 85 % 14.76 C
2002 08-06-2021 22:45:00 17.2 C 85 % 14.66 C
2003 08-06-2021 22:50:00 17.1 C 86 % 14.74 C
2004 08-06-2021 22:55:00 16.9 C 86 % 14.54 C
2005 08-06-2021 23:00:00 16.8 C 86 % 14.45 C
2006 08-06-2021 23:05:00 16.6 C 87 % 14.43 C
2007 08-06-2021 23:10:00 16.4 C 87 % 14.23 C
2008 08-06-2021 23:15:00 16.3 C 88 % 14.31 C
2009 08-06-2021 23:20:00 16.2 C 88 % 14.21 C
2010 08-06-2021 23:25:00 16.1 C 88 % 14.11 C
2011 08-06-2021 23:30:00 15.9 C 88 % 13.92 C
2012 08-06-2021 23:35:00 15.8 C 89 % 13.99 C
2013 08-06-2021 23:40:00 15.7 C 89 % 13.89 C
2014 08-06-2021 23:45:00 15.6 C 89 % 13.79 C
2015 08-06-2021 23:50:00 15.6 C 89 % 13.79 C
2016 08-06-2021 23:55:00 15.4 C 90 % 13.77 C

Legende:
   Min
   Max


Maximal/Minimal-Werte vom 02.06.2021 - 08.06.2021

Sensor Min Max Avg
Temp
(Aussen-T/F)
8.6 °C
02-06-2021  05:35:00
29.7 °C
02-06-2021  18:20:00
18.11 °C
Feuchte
(Aussen-T/F)
29 %
02-06-2021  16:30:00
98 %
04-06-2021  08:15:00
84.79 %
Taupunkt
(Aussen-T/F)
7.32 C
02-06-2021  05:25:00
22 C
03-06-2021  16:55:00
15.12 C

Die Daten stammen von einer Davis Vantage Pro 2 Wetter-Station und werden unter Linux mit der Software wview2wettercgi und aufbereitet. Alle Angaben erfolgen ohne Gewähr für ihre Vollständigkeit oder Richtigkeit.
Kontakt: Rainer Krienke krienke@uni-koblenz.de . Meine Webseiten an der Uni Koblenz oder privat.
Version: $Revision: 0.78 $